<?xml version="1.0" encoding="UTF-8" standalone="no" ?>
<gpx xmlns="http://www.topografix.com/GPX/1/1" xmlns:xsi="http://www.w3.org/2001/XMLSchema-instance" xsi:schemaLocation="http://www.topografix.com/GPX/1/1 http://www.topografix.com/GPX/1/1/gpx.xsd" version="1.1" creator="VisuGPX - https://www.visugpx.com">
  <metadata>
    <name>SPT Royan-Montperrier 23/11/2011</name>
    <desc><![CDATA[Walkmeter Marche 22 nov. 2012 14:39:25]]></desc>
  </metadata>
  <trk>
    <name><![CDATA[Nouveau parcours]]></name>
    <trkseg>
      <trkpt lat="45.64195" lon="-1.02262">
        <ele>15.9</ele>
        <time>2012-11-22T13:39:25Z</time>
      </trkpt>
      <trkpt lat="45.64197" lon="-1.02263">
        <ele>15.9</ele>
        <time>2012-11-22T13:39:29Z</time>
      </trkpt>
      <trkpt lat="45.64194" lon="-1.02244">
        <ele>15.6</ele>
        <time>2012-11-22T13:39:48Z</time>
      </trkpt>
      <trkpt lat="45.64187" lon="-1.02226">
        <ele>15.4</ele>
        <time>2012-11-22T13:40:04Z</time>
      </trkpt>
      <trkpt lat="45.6418" lon="-1.02209">
        <ele>15.2</ele>
        <time>2012-11-22T13:40:22Z</time>
      </trkpt>
      <trkpt lat="45.64174" lon="-1.0219">
        <ele>15</ele>
        <time>2012-11-22T13:40:34Z</time>
      </trkpt>
      <trkpt lat="45.64169" lon="-1.02171">
        <ele>14.9</ele>
        <time>2012-11-22T13:40:48Z</time>
      </trkpt>
      <trkpt lat="45.64166" lon="-1.02148">
        <ele>14.7</ele>
        <time>2012-11-22T13:40:59Z</time>
      </trkpt>
      <trkpt lat="45.64161" lon="-1.02129">
        <ele>14.5</ele>
        <time>2012-11-22T13:41:13Z</time>
      </trkpt>
      <trkpt lat="45.64157" lon="-1.0211">
        <ele>14.4</ele>
        <time>2012-11-22T13:41:24Z</time>
      </trkpt>
      <trkpt lat="45.64152" lon="-1.02091">
        <ele>14.3</ele>
        <time>2012-11-22T13:41:35Z</time>
      </trkpt>
      <trkpt lat="45.64149" lon="-1.02071">
        <ele>14.1</ele>
        <time>2012-11-22T13:41:47Z</time>
      </trkpt>
      <trkpt lat="45.64145" lon="-1.02052">
        <ele>14</ele>
        <time>2012-11-22T13:41:57Z</time>
      </trkpt>
      <trkpt lat="45.64143" lon="-1.02033">
        <ele>13.8</ele>
        <time>2012-11-22T13:42:08Z</time>
      </trkpt>
      <trkpt lat="45.64138" lon="-1.02011">
        <ele>13.7</ele>
        <time>2012-11-22T13:42:20Z</time>
      </trkpt>
      <trkpt lat="45.64133" lon="-1.01993">
        <ele>13.5</ele>
        <time>2012-11-22T13:42:32Z</time>
      </trkpt>
      <trkpt lat="45.64126" lon="-1.01974">
        <ele>13.4</ele>
        <time>2012-11-22T13:42:44Z</time>
      </trkpt>
      <trkpt lat="45.6412" lon="-1.01956">
        <ele>13.2</ele>
        <time>2012-11-22T13:42:58Z</time>
      </trkpt>
      <trkpt lat="45.64112" lon="-1.01939">
        <ele>13</ele>
        <time>2012-11-22T13:43:11Z</time>
      </trkpt>
      <trkpt lat="45.64104" lon="-1.01922">
        <ele>12.9</ele>
        <time>2012-11-22T13:43:23Z</time>
      </trkpt>
      <trkpt lat="45.64095" lon="-1.01907">
        <ele>12.7</ele>
        <time>2012-11-22T13:43:35Z</time>
      </trkpt>
      <trkpt lat="45.64085" lon="-1.01892">
        <ele>12.6</ele>
        <time>2012-11-22T13:43:47Z</time>
      </trkpt>
      <trkpt lat="45.64076" lon="-1.01877">
        <ele>12.4</ele>
        <time>2012-11-22T13:43:58Z</time>
      </trkpt>
      <trkpt lat="45.64065" lon="-1.01863">
        <ele>12.3</ele>
        <time>2012-11-22T13:44:09Z</time>
      </trkpt>
      <trkpt lat="45.64055" lon="-1.01848">
        <ele>12.2</ele>
        <time>2012-11-22T13:44:19Z</time>
      </trkpt>
      <trkpt lat="45.64046" lon="-1.0183">
        <ele>12</ele>
        <time>2012-11-22T13:44:30Z</time>
      </trkpt>
      <trkpt lat="45.64036" lon="-1.01816">
        <ele>11.8</ele>
        <time>2012-11-22T13:44:44Z</time>
      </trkpt>
      <trkpt lat="45.64026" lon="-1.01801">
        <ele>11.7</ele>
        <time>2012-11-22T13:44:56Z</time>
      </trkpt>
      <trkpt lat="45.64016" lon="-1.01786">
        <ele>11.6</ele>
        <time>2012-11-22T13:45:07Z</time>
      </trkpt>
      <trkpt lat="45.64006" lon="-1.01772">
        <ele>11.4</ele>
        <time>2012-11-22T13:45:19Z</time>
      </trkpt>
      <trkpt lat="45.63995" lon="-1.01757">
        <ele>11.2</ele>
        <time>2012-11-22T13:45:31Z</time>
      </trkpt>
      <trkpt lat="45.63987" lon="-1.01753">
        <ele>11.1</ele>
        <time>2012-11-22T13:45:40Z</time>
      </trkpt>
      <trkpt lat="45.63977" lon="-1.01768">
        <ele>11</ele>
        <time>2012-11-22T13:45:48Z</time>
      </trkpt>
      <trkpt lat="45.63967" lon="-1.01782">
        <ele>10.9</ele>
        <time>2012-11-22T13:46:02Z</time>
      </trkpt>
      <trkpt lat="45.63955" lon="-1.01791">
        <ele>10.7</ele>
        <time>2012-11-22T13:46:13Z</time>
      </trkpt>
      <trkpt lat="45.63946" lon="-1.01807">
        <ele>10.6</ele>
        <time>2012-11-22T13:46:25Z</time>
      </trkpt>
      <trkpt lat="45.63934" lon="-1.01816">
        <ele>10.4</ele>
        <time>2012-11-22T13:46:36Z</time>
      </trkpt>
      <trkpt lat="45.63924" lon="-1.0183">
        <ele>10.3</ele>
        <time>2012-11-22T13:46:48Z</time>
      </trkpt>
      <trkpt lat="45.63915" lon="-1.01846">
        <ele>10.1</ele>
        <time>2012-11-22T13:46:59Z</time>
      </trkpt>
      <trkpt lat="45.63904" lon="-1.0186">
        <ele>10</ele>
        <time>2012-11-22T13:47:11Z</time>
      </trkpt>
      <trkpt lat="45.63892" lon="-1.0187">
        <ele>9.8</ele>
        <time>2012-11-22T13:47:22Z</time>
      </trkpt>
      <trkpt lat="45.63879" lon="-1.01877">
        <ele>9.7</ele>
        <time>2012-11-22T13:47:33Z</time>
      </trkpt>
      <trkpt lat="45.63868" lon="-1.01889">
        <ele>9.5</ele>
        <time>2012-11-22T13:47:45Z</time>
      </trkpt>
      <trkpt lat="45.63857" lon="-1.01902">
        <ele>9.4</ele>
        <time>2012-11-22T13:47:57Z</time>
      </trkpt>
      <trkpt lat="45.63846" lon="-1.01915">
        <ele>9.2</ele>
        <time>2012-11-22T13:48:11Z</time>
      </trkpt>
      <trkpt lat="45.63835" lon="-1.01926">
        <ele>9.1</ele>
        <time>2012-11-22T13:48:23Z</time>
      </trkpt>
      <trkpt lat="45.63823" lon="-1.01936">
        <ele>8.9</ele>
        <time>2012-11-22T13:48:35Z</time>
      </trkpt>
      <trkpt lat="45.63811" lon="-1.01947">
        <ele>8.7</ele>
        <time>2012-11-22T13:48:48Z</time>
      </trkpt>
      <trkpt lat="45.63798" lon="-1.01942">
        <ele>8.6</ele>
        <time>2012-11-22T13:49:01Z</time>
      </trkpt>
      <trkpt lat="45.63788" lon="-1.01926">
        <ele>8.4</ele>
        <time>2012-11-22T13:49:13Z</time>
      </trkpt>
      <trkpt lat="45.6378" lon="-1.01908">
        <ele>8.3</ele>
        <time>2012-11-22T13:49:25Z</time>
      </trkpt>
      <trkpt lat="45.63771" lon="-1.0189">
        <ele>8.1</ele>
        <time>2012-11-22T13:49:36Z</time>
      </trkpt>
      <trkpt lat="45.63762" lon="-1.01876">
        <ele>8</ele>
        <time>2012-11-22T13:49:49Z</time>
      </trkpt>
      <trkpt lat="45.63753" lon="-1.01859">
        <ele>7.8</ele>
        <time>2012-11-22T13:50:01Z</time>
      </trkpt>
      <trkpt lat="45.63746" lon="-1.01843">
        <ele>7.7</ele>
        <time>2012-11-22T13:50:13Z</time>
      </trkpt>
      <trkpt lat="45.63735" lon="-1.01829">
        <ele>7.5</ele>
        <time>2012-11-22T13:50:25Z</time>
      </trkpt>
      <trkpt lat="45.63725" lon="-1.01815">
        <ele>7.4</ele>
        <time>2012-11-22T13:50:37Z</time>
      </trkpt>
      <trkpt lat="45.63716" lon="-1.018">
        <ele>7.2</ele>
        <time>2012-11-22T13:50:49Z</time>
      </trkpt>
      <trkpt lat="45.6371" lon="-1.01781">
        <ele>7</ele>
        <time>2012-11-22T13:51:05Z</time>
      </trkpt>
      <trkpt lat="45.63704" lon="-1.01763">
        <ele>6.8</ele>
        <time>2012-11-22T13:51:17Z</time>
      </trkpt>
      <trkpt lat="45.63712" lon="-1.01724">
        <ele>6.6</ele>
        <time>2012-11-22T13:51:39Z</time>
      </trkpt>
      <trkpt lat="45.63712" lon="-1.01724">
        <ele>6</ele>
        <time>2012-11-22T13:52:20Z</time>
      </trkpt>
      <trkpt lat="45.6372" lon="-1.01704">
        <ele>5.9</ele>
        <time>2012-11-22T13:52:29Z</time>
      </trkpt>
      <trkpt lat="45.63719" lon="-1.01684">
        <ele>5.9</ele>
        <time>2012-11-22T13:52:41Z</time>
      </trkpt>
      <trkpt lat="45.63718" lon="-1.01665">
        <ele>5.9</ele>
        <time>2012-11-22T13:52:52Z</time>
      </trkpt>
      <trkpt lat="45.63721" lon="-1.01645">
        <ele>6</ele>
        <time>2012-11-22T13:53:09Z</time>
      </trkpt>
      <trkpt lat="45.63726" lon="-1.01625">
        <ele>6.1</ele>
        <time>2012-11-22T13:53:28Z</time>
      </trkpt>
      <trkpt lat="45.63731" lon="-1.01582">
        <ele>6.1</ele>
        <time>2012-11-22T13:53:52Z</time>
      </trkpt>
      <trkpt lat="45.63731" lon="-1.01582">
        <ele>6.3</ele>
        <time>2012-11-22T13:54:34Z</time>
      </trkpt>
      <trkpt lat="45.63733" lon="-1.01558">
        <ele>6.3</ele>
        <time>2012-11-22T13:54:47Z</time>
      </trkpt>
      <trkpt lat="45.63733" lon="-1.01533">
        <ele>6.4</ele>
        <time>2012-11-22T13:55:15Z</time>
      </trkpt>
      <trkpt lat="45.63735" lon="-1.01511">
        <ele>6.5</ele>
        <time>2012-11-22T13:55:32Z</time>
      </trkpt>
      <trkpt lat="45.63736" lon="-1.01487">
        <ele>6.5</ele>
        <time>2012-11-22T13:55:43Z</time>
      </trkpt>
      <trkpt lat="45.6373" lon="-1.01462">
        <ele>6.6</ele>
        <time>2012-11-22T13:56:05Z</time>
      </trkpt>
      <trkpt lat="45.63721" lon="-1.01448">
        <ele>6.7</ele>
        <time>2012-11-22T13:56:22Z</time>
      </trkpt>
      <trkpt lat="45.63713" lon="-1.01431">
        <ele>6.7</ele>
        <time>2012-11-22T13:56:33Z</time>
      </trkpt>
      <trkpt lat="45.63708" lon="-1.01412">
        <ele>6.7</ele>
        <time>2012-11-22T13:56:41Z</time>
      </trkpt>
      <trkpt lat="45.63705" lon="-1.01392">
        <ele>6.8</ele>
        <time>2012-11-22T13:56:48Z</time>
      </trkpt>
      <trkpt lat="45.63698" lon="-1.01374">
        <ele>6.8</ele>
        <time>2012-11-22T13:56:58Z</time>
      </trkpt>
      <trkpt lat="45.63695" lon="-1.01355">
        <ele>6.9</ele>
        <time>2012-11-22T13:57:10Z</time>
      </trkpt>
      <trkpt lat="45.63696" lon="-1.01334">
        <ele>6.9</ele>
        <time>2012-11-22T13:57:22Z</time>
      </trkpt>
      <trkpt lat="45.63701" lon="-1.01314">
        <ele>6.9</ele>
        <time>2012-11-22T13:57:33Z</time>
      </trkpt>
      <trkpt lat="45.63701" lon="-1.01288">
        <ele>7</ele>
        <time>2012-11-22T13:57:44Z</time>
      </trkpt>
      <trkpt lat="45.637" lon="-1.01268">
        <ele>7</ele>
        <time>2012-11-22T13:58:03Z</time>
      </trkpt>
      <trkpt lat="45.63698" lon="-1.01248">
        <ele>7.1</ele>
        <time>2012-11-22T13:58:17Z</time>
      </trkpt>
      <trkpt lat="45.63698" lon="-1.01226">
        <ele>7.1</ele>
        <time>2012-11-22T13:58:30Z</time>
      </trkpt>
      <trkpt lat="45.63693" lon="-1.01202">
        <ele>7.2</ele>
        <time>2012-11-22T13:58:42Z</time>
      </trkpt>
      <trkpt lat="45.63688" lon="-1.01183">
        <ele>7.2</ele>
        <time>2012-11-22T13:58:55Z</time>
      </trkpt>
      <trkpt lat="45.63677" lon="-1.01171">
        <ele>7.3</ele>
        <time>2012-11-22T13:59:06Z</time>
      </trkpt>
      <trkpt lat="45.63667" lon="-1.01157">
        <ele>7.3</ele>
        <time>2012-11-22T13:59:16Z</time>
      </trkpt>
      <trkpt lat="45.63659" lon="-1.0114">
        <ele>7.3</ele>
        <time>2012-11-22T13:59:28Z</time>
      </trkpt>
      <trkpt lat="45.63653" lon="-1.01121">
        <ele>7.4</ele>
        <time>2012-11-22T13:59:37Z</time>
      </trkpt>
      <trkpt lat="45.63653" lon="-1.011">
        <ele>7.4</ele>
        <time>2012-11-22T13:59:50Z</time>
      </trkpt>
      <trkpt lat="45.63653" lon="-1.01078">
        <ele>7.5</ele>
        <time>2012-11-22T14:00:00Z</time>
      </trkpt>
      <trkpt lat="45.63655" lon="-1.01059">
        <ele>7.5</ele>
        <time>2012-11-22T14:00:12Z</time>
      </trkpt>
      <trkpt lat="45.63658" lon="-1.01038">
        <ele>7.5</ele>
        <time>2012-11-22T14:00:24Z</time>
      </trkpt>
      <trkpt lat="45.63661" lon="-1.01019">
        <ele>7.6</ele>
        <time>2012-11-22T14:00:35Z</time>
      </trkpt>
      <trkpt lat="45.63664" lon="-1.00997">
        <ele>7.6</ele>
        <time>2012-11-22T14:00:46Z</time>
      </trkpt>
      <trkpt lat="45.63666" lon="-1.00976">
        <ele>7.7</ele>
        <time>2012-11-22T14:00:57Z</time>
      </trkpt>
      <trkpt lat="45.63669" lon="-1.00957">
        <ele>7.7</ele>
        <time>2012-11-22T14:01:08Z</time>
      </trkpt>
      <trkpt lat="45.63675" lon="-1.00939">
        <ele>7.7</ele>
        <time>2012-11-22T14:01:20Z</time>
      </trkpt>
      <trkpt lat="45.63682" lon="-1.00918">
        <ele>7.8</ele>
        <time>2012-11-22T14:01:35Z</time>
      </trkpt>
      <trkpt lat="45.63686" lon="-1.009">
        <ele>7.8</ele>
        <time>2012-11-22T14:01:46Z</time>
      </trkpt>
      <trkpt lat="45.6369" lon="-1.00877">
        <ele>7.9</ele>
        <time>2012-11-22T14:01:58Z</time>
      </trkpt>
      <trkpt lat="45.63687" lon="-1.00857">
        <ele>7.9</ele>
        <time>2012-11-22T14:02:12Z</time>
      </trkpt>
      <trkpt lat="45.63683" lon="-1.00838">
        <ele>8</ele>
        <time>2012-11-22T14:02:24Z</time>
      </trkpt>
      <trkpt lat="45.63678" lon="-1.00819">
        <ele>8</ele>
        <time>2012-11-22T14:02:33Z</time>
      </trkpt>
      <trkpt lat="45.63674" lon="-1.008">
        <ele>8.1</ele>
        <time>2012-11-22T14:02:44Z</time>
      </trkpt>
      <trkpt lat="45.63672" lon="-1.00777">
        <ele>8.1</ele>
        <time>2012-11-22T14:02:59Z</time>
      </trkpt>
      <trkpt lat="45.63668" lon="-1.00756">
        <ele>8.1</ele>
        <time>2012-11-22T14:03:09Z</time>
      </trkpt>
      <trkpt lat="45.63664" lon="-1.00736">
        <ele>8.2</ele>
        <time>2012-11-22T14:03:20Z</time>
      </trkpt>
      <trkpt lat="45.6366" lon="-1.0071">
        <ele>8.2</ele>
        <time>2012-11-22T14:03:31Z</time>
      </trkpt>
      <trkpt lat="45.63655" lon="-1.00691">
        <ele>8.3</ele>
        <time>2012-11-22T14:03:45Z</time>
      </trkpt>
      <trkpt lat="45.63651" lon="-1.00667">
        <ele>8.3</ele>
        <time>2012-11-22T14:03:56Z</time>
      </trkpt>
      <trkpt lat="45.63647" lon="-1.00647">
        <ele>8.4</ele>
        <time>2012-11-22T14:04:15Z</time>
      </trkpt>
      <trkpt lat="45.63643" lon="-1.00627">
        <ele>8.4</ele>
        <time>2012-11-22T14:04:28Z</time>
      </trkpt>
      <trkpt lat="45.63643" lon="-1.00607">
        <ele>8.5</ele>
        <time>2012-11-22T14:04:39Z</time>
      </trkpt>
      <trkpt lat="45.63648" lon="-1.00588">
        <ele>8.5</ele>
        <time>2012-11-22T14:04:51Z</time>
      </trkpt>
      <trkpt lat="45.63657" lon="-1.00572">
        <ele>8.6</ele>
        <time>2012-11-22T14:05:06Z</time>
      </trkpt>
      <trkpt lat="45.63669" lon="-1.00558">
        <ele>8.6</ele>
        <time>2012-11-22T14:05:16Z</time>
      </trkpt>
      <trkpt lat="45.63683" lon="-1.00547">
        <ele>8.6</ele>
        <time>2012-11-22T14:05:25Z</time>
      </trkpt>
      <trkpt lat="45.63684" lon="-1.00545">
        <ele>8.6</ele>
        <time>2012-11-22T14:05:27Z</time>
      </trkpt>
      <trkpt lat="45.6369" lon="-1.00551">
        <ele>8.6</ele>
        <time>2012-11-22T14:05:28Z</time>
      </trkpt>
      <trkpt lat="45.63698" lon="-1.00534">
        <ele>8.7</ele>
        <time>2012-11-22T14:05:41Z</time>
      </trkpt>
      <trkpt lat="45.63709" lon="-1.00522">
        <ele>8.7</ele>
        <time>2012-11-22T14:05:52Z</time>
      </trkpt>
      <trkpt lat="45.63721" lon="-1.00513">
        <ele>8.8</ele>
        <time>2012-11-22T14:06:03Z</time>
      </trkpt>
      <trkpt lat="45.63732" lon="-1.00498">
        <ele>8.8</ele>
        <time>2012-11-22T14:06:15Z</time>
      </trkpt>
      <trkpt lat="45.63742" lon="-1.00484">
        <ele>8.8</ele>
        <time>2012-11-22T14:06:25Z</time>
      </trkpt>
      <trkpt lat="45.63752" lon="-1.00467">
        <ele>8.9</ele>
        <time>2012-11-22T14:06:37Z</time>
      </trkpt>
      <trkpt lat="45.63761" lon="-1.00449">
        <ele>8.9</ele>
        <time>2012-11-22T14:06:51Z</time>
      </trkpt>
      <trkpt lat="45.63766" lon="-1.00431">
        <ele>9</ele>
        <time>2012-11-22T14:07:04Z</time>
      </trkpt>
      <trkpt lat="45.63772" lon="-1.00413">
        <ele>9</ele>
        <time>2012-11-22T14:07:14Z</time>
      </trkpt>
      <trkpt lat="45.63778" lon="-1.0039">
        <ele>9.1</ele>
        <time>2012-11-22T14:07:25Z</time>
      </trkpt>
      <trkpt lat="45.63784" lon="-1.00372">
        <ele>9.1</ele>
        <time>2012-11-22T14:07:37Z</time>
      </trkpt>
      <trkpt lat="45.63788" lon="-1.00352">
        <ele>9.1</ele>
        <time>2012-11-22T14:07:48Z</time>
      </trkpt>
      <trkpt lat="45.63791" lon="-1.00327">
        <ele>9.2</ele>
        <time>2012-11-22T14:07:58Z</time>
      </trkpt>
      <trkpt lat="45.63796" lon="-1.00309">
        <ele>9.2</ele>
        <time>2012-11-22T14:08:11Z</time>
      </trkpt>
      <trkpt lat="45.63806" lon="-1.00295">
        <ele>9.3</ele>
        <time>2012-11-22T14:08:30Z</time>
      </trkpt>
      <trkpt lat="45.63819" lon="-1.00286">
        <ele>9.3</ele>
        <time>2012-11-22T14:08:39Z</time>
      </trkpt>
      <trkpt lat="45.63834" lon="-1.00284">
        <ele>9.3</ele>
        <time>2012-11-22T14:08:45Z</time>
      </trkpt>
      <trkpt lat="45.63848" lon="-1.00283">
        <ele>9.4</ele>
        <time>2012-11-22T14:08:54Z</time>
      </trkpt>
      <trkpt lat="45.63862" lon="-1.00282">
        <ele>9.4</ele>
        <time>2012-11-22T14:09:05Z</time>
      </trkpt>
      <trkpt lat="45.63876" lon="-1.00277">
        <ele>9.5</ele>
        <time>2012-11-22T14:09:17Z</time>
      </trkpt>
      <trkpt lat="45.6389" lon="-1.00276">
        <ele>9.5</ele>
        <time>2012-11-22T14:09:28Z</time>
      </trkpt>
      <trkpt lat="45.63904" lon="-1.00273">
        <ele>9.5</ele>
        <time>2012-11-22T14:09:39Z</time>
      </trkpt>
      <trkpt lat="45.63917" lon="-1.00267">
        <ele>9.6</ele>
        <time>2012-11-22T14:09:50Z</time>
      </trkpt>
      <trkpt lat="45.63931" lon="-1.00264">
        <ele>9.6</ele>
        <time>2012-11-22T14:10:01Z</time>
      </trkpt>
      <trkpt lat="45.63945" lon="-1.00261">
        <ele>9.7</ele>
        <time>2012-11-22T14:10:12Z</time>
      </trkpt>
      <trkpt lat="45.63959" lon="-1.00255">
        <ele>9.7</ele>
        <time>2012-11-22T14:10:24Z</time>
      </trkpt>
      <trkpt lat="45.63972" lon="-1.00248">
        <ele>9.7</ele>
        <time>2012-11-22T14:10:36Z</time>
      </trkpt>
      <trkpt lat="45.63987" lon="-1.00245">
        <ele>9.8</ele>
        <time>2012-11-22T14:10:47Z</time>
      </trkpt>
      <trkpt lat="45.64" lon="-1.00238">
        <ele>9.8</ele>
        <time>2012-11-22T14:10:59Z</time>
      </trkpt>
      <trkpt lat="45.64013" lon="-1.00232">
        <ele>9.9</ele>
        <time>2012-11-22T14:11:09Z</time>
      </trkpt>
      <trkpt lat="45.64028" lon="-1.00222">
        <ele>9.9</ele>
        <time>2012-11-22T14:11:21Z</time>
      </trkpt>
      <trkpt lat="45.64042" lon="-1.00219">
        <ele>10</ele>
        <time>2012-11-22T14:11:33Z</time>
      </trkpt>
      <trkpt lat="45.64056" lon="-1.00214">
        <ele>10</ele>
        <time>2012-11-22T14:11:44Z</time>
      </trkpt>
      <trkpt lat="45.64069" lon="-1.00207">
        <ele>10</ele>
        <time>2012-11-22T14:11:56Z</time>
      </trkpt>
      <trkpt lat="45.64082" lon="-1.00199">
        <ele>10.1</ele>
        <time>2012-11-22T14:12:07Z</time>
      </trkpt>
      <trkpt lat="45.64099" lon="-1.00193">
        <ele>10.1</ele>
        <time>2012-11-22T14:12:17Z</time>
      </trkpt>
      <trkpt lat="45.64113" lon="-1.00184">
        <ele>10.2</ele>
        <time>2012-11-22T14:12:32Z</time>
      </trkpt>
      <trkpt lat="45.64129" lon="-1.00178">
        <ele>10.2</ele>
        <time>2012-11-22T14:12:46Z</time>
      </trkpt>
      <trkpt lat="45.64142" lon="-1.00173">
        <ele>10.3</ele>
        <time>2012-11-22T14:12:59Z</time>
      </trkpt>
      <trkpt lat="45.64156" lon="-1.00164">
        <ele>10.3</ele>
        <time>2012-11-22T14:13:11Z</time>
      </trkpt>
      <trkpt lat="45.64169" lon="-1.00159">
        <ele>10.3</ele>
        <time>2012-11-22T14:13:23Z</time>
      </trkpt>
      <trkpt lat="45.64186" lon="-1.00153">
        <ele>10.4</ele>
        <time>2012-11-22T14:13:34Z</time>
      </trkpt>
      <trkpt lat="45.64198" lon="-1.00144">
        <ele>10.4</ele>
        <time>2012-11-22T14:13:47Z</time>
      </trkpt>
      <trkpt lat="45.64211" lon="-1.00134">
        <ele>10.5</ele>
        <time>2012-11-22T14:13:59Z</time>
      </trkpt>
      <trkpt lat="45.64224" lon="-1.00128">
        <ele>10.5</ele>
        <time>2012-11-22T14:14:08Z</time>
      </trkpt>
      <trkpt lat="45.64237" lon="-1.0012">
        <ele>10.5</ele>
        <time>2012-11-22T14:14:18Z</time>
      </trkpt>
      <trkpt lat="45.64251" lon="-1.0011">
        <ele>10.6</ele>
        <time>2012-11-22T14:14:31Z</time>
      </trkpt>
      <trkpt lat="45.64262" lon="-1.00093">
        <ele>10.6</ele>
        <time>2012-11-22T14:14:46Z</time>
      </trkpt>
      <trkpt lat="45.64275" lon="-1.00085">
        <ele>10.7</ele>
        <time>2012-11-22T14:14:59Z</time>
      </trkpt>
      <trkpt lat="45.64288" lon="-1.00076">
        <ele>10.7</ele>
        <time>2012-11-22T14:15:10Z</time>
      </trkpt>
      <trkpt lat="45.64301" lon="-1.00069">
        <ele>10.8</ele>
        <time>2012-11-22T14:15:22Z</time>
      </trkpt>
      <trkpt lat="45.64318" lon="-1.00058">
        <ele>10.8</ele>
        <time>2012-11-22T14:15:32Z</time>
      </trkpt>
      <trkpt lat="45.6433" lon="-1.00047">
        <ele>10.9</ele>
        <time>2012-11-22T14:15:48Z</time>
      </trkpt>
      <trkpt lat="45.64343" lon="-1.00038">
        <ele>10.9</ele>
        <time>2012-11-22T14:15:58Z</time>
      </trkpt>
      <trkpt lat="45.64356" lon="-1.00029">
        <ele>10.9</ele>
        <time>2012-11-22T14:16:09Z</time>
      </trkpt>
      <trkpt lat="45.64369" lon="-1.0002">
        <ele>11</ele>
        <time>2012-11-22T14:16:20Z</time>
      </trkpt>
      <trkpt lat="45.64383" lon="-1.00014">
        <ele>11</ele>
        <time>2012-11-22T14:16:32Z</time>
      </trkpt>
      <trkpt lat="45.64396" lon="-1.00005">
        <ele>11.1</ele>
        <time>2012-11-22T14:16:42Z</time>
      </trkpt>
      <trkpt lat="45.64408" lon="-0.99994">
        <ele>11.1</ele>
        <time>2012-11-22T14:16:52Z</time>
      </trkpt>
      <trkpt lat="45.6442" lon="-0.99984">
        <ele>11.1</ele>
        <time>2012-11-22T14:17:03Z</time>
      </trkpt>
      <trkpt lat="45.64431" lon="-0.99972">
        <ele>11.2</ele>
        <time>2012-11-22T14:17:13Z</time>
      </trkpt>
      <trkpt lat="45.6444" lon="-0.99956">
        <ele>11.2</ele>
        <time>2012-11-22T14:17:27Z</time>
      </trkpt>
      <trkpt lat="45.64449" lon="-0.99943">
        <ele>11.3</ele>
        <time>2012-11-22T14:17:39Z</time>
      </trkpt>
      <trkpt lat="45.6446" lon="-0.9993">
        <ele>11.3</ele>
        <time>2012-11-22T14:17:50Z</time>
      </trkpt>
      <trkpt lat="45.64472" lon="-0.9992">
        <ele>11.3</ele>
        <time>2012-11-22T14:18:00Z</time>
      </trkpt>
      <trkpt lat="45.64486" lon="-0.99912">
        <ele>11.4</ele>
        <time>2012-11-22T14:18:10Z</time>
      </trkpt>
      <trkpt lat="45.64498" lon="-0.99903">
        <ele>11.4</ele>
        <time>2012-11-22T14:18:20Z</time>
      </trkpt>
      <trkpt lat="45.6451" lon="-0.99893">
        <ele>11.5</ele>
        <time>2012-11-22T14:18:33Z</time>
      </trkpt>
      <trkpt lat="45.64521" lon="-0.99883">
        <ele>11.5</ele>
        <time>2012-11-22T14:18:44Z</time>
      </trkpt>
      <trkpt lat="45.64541" lon="-0.99849">
        <ele>11.6</ele>
        <time>2012-11-22T14:19:04Z</time>
      </trkpt>
      <trkpt lat="45.64541" lon="-0.99849">
        <ele>11.7</ele>
        <time>2012-11-22T14:19:47Z</time>
      </trkpt>
      <trkpt lat="45.64549" lon="-0.99825">
        <ele>11.8</ele>
        <time>2012-11-22T14:19:58Z</time>
      </trkpt>
      <trkpt lat="45.64544" lon="-0.99807">
        <ele>11.8</ele>
        <time>2012-11-22T14:20:10Z</time>
      </trkpt>
      <trkpt lat="45.6454" lon="-0.99788">
        <ele>11.8</ele>
        <time>2012-11-22T14:20:21Z</time>
      </trkpt>
      <trkpt lat="45.64536" lon="-0.99769">
        <ele>11.9</ele>
        <time>2012-11-22T14:20:32Z</time>
      </trkpt>
      <trkpt lat="45.64532" lon="-0.9975">
        <ele>11.9</ele>
        <time>2012-11-22T14:20:45Z</time>
      </trkpt>
      <trkpt lat="45.64528" lon="-0.99731">
        <ele>12</ele>
        <time>2012-11-22T14:20:56Z</time>
      </trkpt>
      <trkpt lat="45.64525" lon="-0.99711">
        <ele>12</ele>
        <time>2012-11-22T14:21:08Z</time>
      </trkpt>
      <trkpt lat="45.64522" lon="-0.9969">
        <ele>12.1</ele>
        <time>2012-11-22T14:21:20Z</time>
      </trkpt>
      <trkpt lat="45.6452" lon="-0.99668">
        <ele>12.1</ele>
        <time>2012-11-22T14:21:36Z</time>
      </trkpt>
      <trkpt lat="45.64516" lon="-0.99646">
        <ele>12.2</ele>
        <time>2012-11-22T14:21:49Z</time>
      </trkpt>
      <trkpt lat="45.64512" lon="-0.99626">
        <ele>12.2</ele>
        <time>2012-11-22T14:22:00Z</time>
      </trkpt>
      <trkpt lat="45.64508" lon="-0.99606">
        <ele>12.2</ele>
        <time>2012-11-22T14:22:11Z</time>
      </trkpt>
      <trkpt lat="45.64504" lon="-0.99566">
        <ele>12.3</ele>
        <time>2012-11-22T14:22:39Z</time>
      </trkpt>
      <trkpt lat="45.64504" lon="-0.99566">
        <ele>12.5</ele>
        <time>2012-11-22T14:23:29Z</time>
      </trkpt>
      <trkpt lat="45.64504" lon="-0.99546">
        <ele>12.5</ele>
        <time>2012-11-22T14:23:31Z</time>
      </trkpt>
      <trkpt lat="45.6452" lon="-0.99547">
        <ele>12.6</ele>
        <time>2012-11-22T14:23:45Z</time>
      </trkpt>
      <trkpt lat="45.64537" lon="-0.99545">
        <ele>12.6</ele>
        <time>2012-11-22T14:24:02Z</time>
      </trkpt>
      <trkpt lat="45.64554" lon="-0.99541">
        <ele>12.7</ele>
        <time>2012-11-22T14:24:19Z</time>
      </trkpt>
      <trkpt lat="45.64568" lon="-0.9954">
        <ele>12.8</ele>
        <time>2012-11-22T14:24:33Z</time>
      </trkpt>
      <trkpt lat="45.64581" lon="-0.99534">
        <ele>12.8</ele>
        <time>2012-11-22T14:24:46Z</time>
      </trkpt>
      <trkpt lat="45.64595" lon="-0.99528">
        <ele>12.8</ele>
        <time>2012-11-22T14:24:56Z</time>
      </trkpt>
      <trkpt lat="45.64608" lon="-0.9952">
        <ele>12.9</ele>
        <time>2012-11-22T14:25:08Z</time>
      </trkpt>
      <trkpt lat="45.64621" lon="-0.99513">
        <ele>12.9</ele>
        <time>2012-11-22T14:25:20Z</time>
      </trkpt>
      <trkpt lat="45.64635" lon="-0.99509">
        <ele>13</ele>
        <time>2012-11-22T14:25:33Z</time>
      </trkpt>
      <trkpt lat="45.64648" lon="-0.99503">
        <ele>13</ele>
        <time>2012-11-22T14:25:45Z</time>
      </trkpt>
      <trkpt lat="45.64663" lon="-0.99496">
        <ele>13</ele>
        <time>2012-11-22T14:25:56Z</time>
      </trkpt>
      <trkpt lat="45.64676" lon="-0.99491">
        <ele>13.1</ele>
        <time>2012-11-22T14:26:07Z</time>
      </trkpt>
      <trkpt lat="45.64689" lon="-0.99483">
        <ele>13.1</ele>
        <time>2012-11-22T14:26:20Z</time>
      </trkpt>
      <trkpt lat="45.64703" lon="-0.99476">
        <ele>13.2</ele>
        <time>2012-11-22T14:26:32Z</time>
      </trkpt>
      <trkpt lat="45.64718" lon="-0.99467">
        <ele>13.2</ele>
        <time>2012-11-22T14:26:46Z</time>
      </trkpt>
      <trkpt lat="45.64732" lon="-0.99461">
        <ele>13.3</ele>
        <time>2012-11-22T14:26:59Z</time>
      </trkpt>
      <trkpt lat="45.64744" lon="-0.99451">
        <ele>13.3</ele>
        <time>2012-11-22T14:27:10Z</time>
      </trkpt>
      <trkpt lat="45.64757" lon="-0.99444">
        <ele>13.4</ele>
        <time>2012-11-22T14:27:22Z</time>
      </trkpt>
      <trkpt lat="45.64771" lon="-0.99436">
        <ele>13.4</ele>
        <time>2012-11-22T14:27:34Z</time>
      </trkpt>
      <trkpt lat="45.64784" lon="-0.99427">
        <ele>13.4</ele>
        <time>2012-11-22T14:27:47Z</time>
      </trkpt>
      <trkpt lat="45.64797" lon="-0.99419">
        <ele>13.5</ele>
        <time>2012-11-22T14:27:59Z</time>
      </trkpt>
      <trkpt lat="45.64809" lon="-0.9941">
        <ele>13.5</ele>
        <time>2012-11-22T14:28:11Z</time>
      </trkpt>
      <trkpt lat="45.64822" lon="-0.99401">
        <ele>13.6</ele>
        <time>2012-11-22T14:28:23Z</time>
      </trkpt>
      <trkpt lat="45.64835" lon="-0.99393">
        <ele>13.6</ele>
        <time>2012-11-22T14:28:36Z</time>
      </trkpt>
      <trkpt lat="45.64847" lon="-0.99384">
        <ele>13.7</ele>
        <time>2012-11-22T14:28:48Z</time>
      </trkpt>
      <trkpt lat="45.6486" lon="-0.99373">
        <ele>13.7</ele>
        <time>2012-11-22T14:29:00Z</time>
      </trkpt>
      <trkpt lat="45.64871" lon="-0.99362">
        <ele>13.8</ele>
        <time>2012-11-22T14:29:13Z</time>
      </trkpt>
      <trkpt lat="45.64884" lon="-0.99351">
        <ele>13.8</ele>
        <time>2012-11-22T14:29:25Z</time>
      </trkpt>
      <trkpt lat="45.64896" lon="-0.99341">
        <ele>13.8</ele>
        <time>2012-11-22T14:29:37Z</time>
      </trkpt>
      <trkpt lat="45.64909" lon="-0.9933">
        <ele>13.9</ele>
        <time>2012-11-22T14:29:49Z</time>
      </trkpt>
      <trkpt lat="45.6492" lon="-0.9932">
        <ele>13.9</ele>
        <time>2012-11-22T14:30:00Z</time>
      </trkpt>
      <trkpt lat="45.64932" lon="-0.99308">
        <ele>14</ele>
        <time>2012-11-22T14:30:11Z</time>
      </trkpt>
      <trkpt lat="45.64942" lon="-0.99292">
        <ele>14</ele>
        <time>2012-11-22T14:30:23Z</time>
      </trkpt>
      <trkpt lat="45.64951" lon="-0.99277">
        <ele>14.1</ele>
        <time>2012-11-22T14:30:35Z</time>
      </trkpt>
      <trkpt lat="45.64959" lon="-0.99259">
        <ele>14.1</ele>
        <time>2012-11-22T14:30:48Z</time>
      </trkpt>
      <trkpt lat="45.64967" lon="-0.99245">
        <ele>14.1</ele>
        <time>2012-11-22T14:30:59Z</time>
      </trkpt>
      <trkpt lat="45.64978" lon="-0.99231">
        <ele>14.2</ele>
        <time>2012-11-22T14:31:09Z</time>
      </trkpt>
      <trkpt lat="45.64988" lon="-0.99218">
        <ele>14.2</ele>
        <time>2012-11-22T14:31:22Z</time>
      </trkpt>
      <trkpt lat="45.65" lon="-0.99209">
        <ele>14.3</ele>
        <time>2012-11-22T14:31:33Z</time>
      </trkpt>
      <trkpt lat="45.65013" lon="-0.99197">
        <ele>14.3</ele>
        <time>2012-11-22T14:31:44Z</time>
      </trkpt>
      <trkpt lat="45.65026" lon="-0.99184">
        <ele>14.3</ele>
        <time>2012-11-22T14:31:56Z</time>
      </trkpt>
      <trkpt lat="45.65038" lon="-0.99173">
        <ele>14.4</ele>
        <time>2012-11-22T14:32:08Z</time>
      </trkpt>
      <trkpt lat="45.65049" lon="-0.99161">
        <ele>14.4</ele>
        <time>2012-11-22T14:32:20Z</time>
      </trkpt>
      <trkpt lat="45.6506" lon="-0.99149">
        <ele>14.5</ele>
        <time>2012-11-22T14:32:31Z</time>
      </trkpt>
      <trkpt lat="45.65072" lon="-0.99138">
        <ele>14.5</ele>
        <time>2012-11-22T14:32:43Z</time>
      </trkpt>
      <trkpt lat="45.65082" lon="-0.99125">
        <ele>14.5</ele>
        <time>2012-11-22T14:32:54Z</time>
      </trkpt>
      <trkpt lat="45.65095" lon="-0.99111">
        <ele>14.6</ele>
        <time>2012-11-22T14:33:07Z</time>
      </trkpt>
      <trkpt lat="45.65107" lon="-0.991">
        <ele>14.6</ele>
        <time>2012-11-22T14:33:21Z</time>
      </trkpt>
      <trkpt lat="45.6513" lon="-0.99078">
        <ele>14.7</ele>
        <time>2012-11-22T14:33:39Z</time>
      </trkpt>
      <trkpt lat="45.6513" lon="-0.99078">
        <ele>14.8</ele>
        <time>2012-11-22T14:34:17Z</time>
      </trkpt>
      <trkpt lat="45.65141" lon="-0.99068">
        <ele>14.9</ele>
        <time>2012-11-22T14:34:20Z</time>
      </trkpt>
      <trkpt lat="45.65153" lon="-0.99058">
        <ele>15</ele>
        <time>2012-11-22T14:34:49Z</time>
      </trkpt>
      <trkpt lat="45.65179" lon="-0.99035">
        <ele>15.1</ele>
        <time>2012-11-22T14:35:15Z</time>
      </trkpt>
      <trkpt lat="45.65179" lon="-0.99035">
        <ele>16.3</ele>
        <time>2012-11-22T14:41:32Z</time>
      </trkpt>
      <trkpt lat="45.65193" lon="-0.99023">
        <ele>16.4</ele>
        <time>2012-11-22T14:41:37Z</time>
      </trkpt>
      <trkpt lat="45.65204" lon="-0.99012">
        <ele>16.4</ele>
        <time>2012-11-22T14:41:53Z</time>
      </trkpt>
      <trkpt lat="45.65216" lon="-0.99002">
        <ele>16.5</ele>
        <time>2012-11-22T14:42:11Z</time>
      </trkpt>
      <trkpt lat="45.65229" lon="-0.98991">
        <ele>16.5</ele>
        <time>2012-11-22T14:42:26Z</time>
      </trkpt>
      <trkpt lat="45.6524" lon="-0.98979">
        <ele>16.5</ele>
        <time>2012-11-22T14:42:40Z</time>
      </trkpt>
      <trkpt lat="45.65252" lon="-0.9897">
        <ele>16.6</ele>
        <time>2012-11-22T14:42:52Z</time>
      </trkpt>
      <trkpt lat="45.65264" lon="-0.98959">
        <ele>16.6</ele>
        <time>2012-11-22T14:43:05Z</time>
      </trkpt>
      <trkpt lat="45.65276" lon="-0.98948">
        <ele>16.7</ele>
        <time>2012-11-22T14:43:16Z</time>
      </trkpt>
      <trkpt lat="45.65288" lon="-0.98938">
        <ele>16.7</ele>
        <time>2012-11-22T14:43:26Z</time>
      </trkpt>
      <trkpt lat="45.653" lon="-0.98928">
        <ele>16.7</ele>
        <time>2012-11-22T14:43:38Z</time>
      </trkpt>
      <trkpt lat="45.65311" lon="-0.98918">
        <ele>16.8</ele>
        <time>2012-11-22T14:43:50Z</time>
      </trkpt>
      <trkpt lat="45.65324" lon="-0.98908">
        <ele>16.8</ele>
        <time>2012-11-22T14:44:00Z</time>
      </trkpt>
      <trkpt lat="45.65336" lon="-0.98898">
        <ele>16.8</ele>
        <time>2012-11-22T14:44:14Z</time>
      </trkpt>
      <trkpt lat="45.65349" lon="-0.98889">
        <ele>16.9</ele>
        <time>2012-11-22T14:44:26Z</time>
      </trkpt>
      <trkpt lat="45.6536" lon="-0.98878">
        <ele>16.9</ele>
        <time>2012-11-22T14:44:37Z</time>
      </trkpt>
      <trkpt lat="45.65371" lon="-0.98867">
        <ele>16.9</ele>
        <time>2012-11-22T14:44:48Z</time>
      </trkpt>
      <trkpt lat="45.65383" lon="-0.98856">
        <ele>17</ele>
        <time>2012-11-22T14:45:01Z</time>
      </trkpt>
      <trkpt lat="45.65395" lon="-0.98844">
        <ele>17</ele>
        <time>2012-11-22T14:45:12Z</time>
      </trkpt>
      <trkpt lat="45.65407" lon="-0.98835">
        <ele>17</ele>
        <time>2012-11-22T14:45:22Z</time>
      </trkpt>
      <trkpt lat="45.6542" lon="-0.98824">
        <ele>17.1</ele>
        <time>2012-11-22T14:45:34Z</time>
      </trkpt>
      <trkpt lat="45.65432" lon="-0.98813">
        <ele>17.1</ele>
        <time>2012-11-22T14:45:46Z</time>
      </trkpt>
      <trkpt lat="45.65444" lon="-0.98803">
        <ele>17.2</ele>
        <time>2012-11-22T14:45:58Z</time>
      </trkpt>
      <trkpt lat="45.65456" lon="-0.98792">
        <ele>17.2</ele>
        <time>2012-11-22T14:46:10Z</time>
      </trkpt>
      <trkpt lat="45.65468" lon="-0.98781">
        <ele>17.2</ele>
        <time>2012-11-22T14:46:20Z</time>
      </trkpt>
      <trkpt lat="45.65481" lon="-0.98771">
        <ele>17.3</ele>
        <time>2012-11-22T14:46:34Z</time>
      </trkpt>
      <trkpt lat="45.65493" lon="-0.9876">
        <ele>17.3</ele>
        <time>2012-11-22T14:46:45Z</time>
      </trkpt>
      <trkpt lat="45.65505" lon="-0.98748">
        <ele>17.3</ele>
        <time>2012-11-22T14:46:57Z</time>
      </trkpt>
      <trkpt lat="45.65517" lon="-0.98739">
        <ele>17.4</ele>
        <time>2012-11-22T14:47:08Z</time>
      </trkpt>
      <trkpt lat="45.65529" lon="-0.98729">
        <ele>17.4</ele>
        <time>2012-11-22T14:47:19Z</time>
      </trkpt>
      <trkpt lat="45.65541" lon="-0.98718">
        <ele>17.4</ele>
        <time>2012-11-22T14:47:31Z</time>
      </trkpt>
      <trkpt lat="45.65554" lon="-0.98709">
        <ele>17.5</ele>
        <time>2012-11-22T14:47:41Z</time>
      </trkpt>
      <trkpt lat="45.65566" lon="-0.98697">
        <ele>17.5</ele>
        <time>2012-11-22T14:47:53Z</time>
      </trkpt>
      <trkpt lat="45.65577" lon="-0.98685">
        <ele>17.5</ele>
        <time>2012-11-22T14:48:04Z</time>
      </trkpt>
      <trkpt lat="45.65589" lon="-0.98674">
        <ele>17.6</ele>
        <time>2012-11-22T14:48:16Z</time>
      </trkpt>
      <trkpt lat="45.65601" lon="-0.98665">
        <ele>17.6</ele>
        <time>2012-11-22T14:48:26Z</time>
      </trkpt>
      <trkpt lat="45.65613" lon="-0.98654">
        <ele>17.7</ele>
        <time>2012-11-22T14:48:38Z</time>
      </trkpt>
      <trkpt lat="45.65624" lon="-0.98642">
        <ele>17.7</ele>
        <time>2012-11-22T14:48:49Z</time>
      </trkpt>
      <trkpt lat="45.65638" lon="-0.9863">
        <ele>17.7</ele>
        <time>2012-11-22T14:49:01Z</time>
      </trkpt>
      <trkpt lat="45.65652" lon="-0.98618">
        <ele>17.8</ele>
        <time>2012-11-22T14:49:14Z</time>
      </trkpt>
      <trkpt lat="45.65666" lon="-0.98604">
        <ele>17.8</ele>
        <time>2012-11-22T14:49:29Z</time>
      </trkpt>
      <trkpt lat="45.6568" lon="-0.98594">
        <ele>17.9</ele>
        <time>2012-11-22T14:49:43Z</time>
      </trkpt>
      <trkpt lat="45.65696" lon="-0.98593">
        <ele>17.9</ele>
        <time>2012-11-22T14:49:56Z</time>
      </trkpt>
      <trkpt lat="45.657" lon="-0.98612">
        <ele>17.9</ele>
        <time>2012-11-22T14:50:11Z</time>
      </trkpt>
      <trkpt lat="45.65696" lon="-0.98632">
        <ele>18</ele>
        <time>2012-11-22T14:50:25Z</time>
      </trkpt>
      <trkpt lat="45.65692" lon="-0.9865">
        <ele>18</ele>
        <time>2012-11-22T14:50:37Z</time>
      </trkpt>
      <trkpt lat="45.65688" lon="-0.98669">
        <ele>18.1</ele>
        <time>2012-11-22T14:50:50Z</time>
      </trkpt>
      <trkpt lat="45.65686" lon="-0.9869">
        <ele>18.1</ele>
        <time>2012-11-22T14:51:02Z</time>
      </trkpt>
      <trkpt lat="45.65684" lon="-0.9871">
        <ele>18.1</ele>
        <time>2012-11-22T14:51:13Z</time>
      </trkpt>
      <trkpt lat="45.65682" lon="-0.98729">
        <ele>18.2</ele>
        <time>2012-11-22T14:51:25Z</time>
      </trkpt>
      <trkpt lat="45.65679" lon="-0.98749">
        <ele>18.2</ele>
        <time>2012-11-22T14:51:36Z</time>
      </trkpt>
      <trkpt lat="45.65675" lon="-0.98768">
        <ele>18.2</ele>
        <time>2012-11-22T14:51:46Z</time>
      </trkpt>
      <trkpt lat="45.65673" lon="-0.98794">
        <ele>18.3</ele>
        <time>2012-11-22T14:52:00Z</time>
      </trkpt>
      <trkpt lat="45.65672" lon="-0.98814">
        <ele>18.3</ele>
        <time>2012-11-22T14:52:15Z</time>
      </trkpt>
      <trkpt lat="45.65672" lon="-0.98835">
        <ele>18.4</ele>
        <time>2012-11-22T14:52:26Z</time>
      </trkpt>
      <trkpt lat="45.65673" lon="-0.98854">
        <ele>18.4</ele>
        <time>2012-11-22T14:52:37Z</time>
      </trkpt>
      <trkpt lat="45.65675" lon="-0.98874">
        <ele>18.4</ele>
        <time>2012-11-22T14:52:49Z</time>
      </trkpt>
      <trkpt lat="45.65675" lon="-0.98899">
        <ele>18.5</ele>
        <time>2012-11-22T14:53:03Z</time>
      </trkpt>
      <trkpt lat="45.65674" lon="-0.98918">
        <ele>18.5</ele>
        <time>2012-11-22T14:53:15Z</time>
      </trkpt>
      <trkpt lat="45.6567" lon="-0.98945">
        <ele>18.5</ele>
        <time>2012-11-22T14:53:26Z</time>
      </trkpt>
      <trkpt lat="45.65665" lon="-0.98969">
        <ele>18.6</ele>
        <time>2012-11-22T14:53:44Z</time>
      </trkpt>
      <trkpt lat="45.65657" lon="-0.98986">
        <ele>18.6</ele>
        <time>2012-11-22T14:53:58Z</time>
      </trkpt>
      <trkpt lat="45.65648" lon="-0.99008">
        <ele>18.7</ele>
        <time>2012-11-22T14:54:09Z</time>
      </trkpt>
      <trkpt lat="45.6564" lon="-0.99025">
        <ele>18.7</ele>
        <time>2012-11-22T14:54:26Z</time>
      </trkpt>
      <trkpt lat="45.65631" lon="-0.99041">
        <ele>18.8</ele>
        <time>2012-11-22T14:54:37Z</time>
      </trkpt>
      <trkpt lat="45.65623" lon="-0.99057">
        <ele>18.8</ele>
        <time>2012-11-22T14:54:50Z</time>
      </trkpt>
      <trkpt lat="45.65614" lon="-0.99074">
        <ele>18.8</ele>
        <time>2012-11-22T14:55:01Z</time>
      </trkpt>
      <trkpt lat="45.65606" lon="-0.9909">
        <ele>18.9</ele>
        <time>2012-11-22T14:55:12Z</time>
      </trkpt>
      <trkpt lat="45.65598" lon="-0.99106">
        <ele>18.9</ele>
        <time>2012-11-22T14:55:27Z</time>
      </trkpt>
      <trkpt lat="45.65579" lon="-0.99141">
        <ele>19</ele>
        <time>2012-11-22T14:56:06Z</time>
      </trkpt>
      <trkpt lat="45.65579" lon="-0.99141">
        <ele>19.4</ele>
        <time>2012-11-22T14:57:56Z</time>
      </trkpt>
      <trkpt lat="45.65571" lon="-0.9916">
        <ele>19.4</ele>
        <time>2012-11-22T14:58:00Z</time>
      </trkpt>
      <trkpt lat="45.65563" lon="-0.99176">
        <ele>19.4</ele>
        <time>2012-11-22T14:58:13Z</time>
      </trkpt>
      <trkpt lat="45.65554" lon="-0.99191">
        <ele>19.5</ele>
        <time>2012-11-22T14:58:25Z</time>
      </trkpt>
      <trkpt lat="45.65548" lon="-0.99209">
        <ele>19.5</ele>
        <time>2012-11-22T14:58:36Z</time>
      </trkpt>
      <trkpt lat="45.65536" lon="-0.99229">
        <ele>19.5</ele>
        <time>2012-11-22T14:58:50Z</time>
      </trkpt>
      <trkpt lat="45.65528" lon="-0.99246">
        <ele>19.6</ele>
        <time>2012-11-22T14:59:07Z</time>
      </trkpt>
      <trkpt lat="45.6552" lon="-0.99263">
        <ele>19.6</ele>
        <time>2012-11-22T14:59:19Z</time>
      </trkpt>
      <trkpt lat="45.65512" lon="-0.9928">
        <ele>19.7</ele>
        <time>2012-11-22T14:59:31Z</time>
      </trkpt>
      <trkpt lat="45.65506" lon="-0.99298">
        <ele>19.7</ele>
        <time>2012-11-22T14:59:43Z</time>
      </trkpt>
      <trkpt lat="45.65498" lon="-0.99314">
        <ele>19.8</ele>
        <time>2012-11-22T14:59:55Z</time>
      </trkpt>
      <trkpt lat="45.6549" lon="-0.99331">
        <ele>19.8</ele>
        <time>2012-11-22T15:00:06Z</time>
      </trkpt>
      <trkpt lat="45.65482" lon="-0.99353">
        <ele>19.8</ele>
        <time>2012-11-22T15:00:16Z</time>
      </trkpt>
      <trkpt lat="45.65475" lon="-0.99371">
        <ele>19.9</ele>
        <time>2012-11-22T15:00:30Z</time>
      </trkpt>
      <trkpt lat="45.65467" lon="-0.99388">
        <ele>19.9</ele>
        <time>2012-11-22T15:00:42Z</time>
      </trkpt>
      <trkpt lat="45.6546" lon="-0.99404">
        <ele>19.9</ele>
        <time>2012-11-22T15:00:53Z</time>
      </trkpt>
      <trkpt lat="45.65459" lon="-0.99426">
        <ele>20</ele>
        <time>2012-11-22T15:01:04Z</time>
      </trkpt>
      <trkpt lat="45.65474" lon="-0.99438">
        <ele>20</ele>
        <time>2012-11-22T15:01:16Z</time>
      </trkpt>
      <trkpt lat="45.65484" lon="-0.99451">
        <ele>20</ele>
        <time>2012-11-22T15:01:28Z</time>
      </trkpt>
      <trkpt lat="45.65495" lon="-0.99466">
        <ele>20.1</ele>
        <time>2012-11-22T15:01:40Z</time>
      </trkpt>
      <trkpt lat="45.65505" lon="-0.99481">
        <ele>20.1</ele>
        <time>2012-11-22T15:01:52Z</time>
      </trkpt>
      <trkpt lat="45.65514" lon="-0.99496">
        <ele>20.1</ele>
        <time>2012-11-22T15:02:03Z</time>
      </trkpt>
      <trkpt lat="45.65526" lon="-0.99507">
        <ele>20.2</ele>
        <time>2012-11-22T15:02:15Z</time>
      </trkpt>
      <trkpt lat="45.65536" lon="-0.99519">
        <ele>20.2</ele>
        <time>2012-11-22T15:02:27Z</time>
      </trkpt>
      <trkpt lat="45.65546" lon="-0.99535">
        <ele>20.3</ele>
        <time>2012-11-22T15:02:40Z</time>
      </trkpt>
      <trkpt lat="45.65556" lon="-0.99549">
        <ele>20.3</ele>
        <time>2012-11-22T15:02:52Z</time>
      </trkpt>
      <trkpt lat="45.65566" lon="-0.99562">
        <ele>20.3</ele>
        <time>2012-11-22T15:03:03Z</time>
      </trkpt>
      <trkpt lat="45.65577" lon="-0.99574">
        <ele>20.4</ele>
        <time>2012-11-22T15:03:14Z</time>
      </trkpt>
      <trkpt lat="45.65586" lon="-0.99588">
        <ele>20.4</ele>
        <time>2012-11-22T15:03:24Z</time>
      </trkpt>
      <trkpt lat="45.65596" lon="-0.99602">
        <ele>20.4</ele>
        <time>2012-11-22T15:03:34Z</time>
      </trkpt>
      <trkpt lat="45.65607" lon="-0.99615">
        <ele>20.5</ele>
        <time>2012-11-22T15:03:44Z</time>
      </trkpt>
      <trkpt lat="45.65617" lon="-0.99629">
        <ele>20.5</ele>
        <time>2012-11-22T15:03:54Z</time>
      </trkpt>
      <trkpt lat="45.65627" lon="-0.99642">
        <ele>20.5</ele>
        <time>2012-11-22T15:04:05Z</time>
      </trkpt>
      <trkpt lat="45.65639" lon="-0.99656">
        <ele>20.6</ele>
        <time>2012-11-22T15:04:16Z</time>
      </trkpt>
      <trkpt lat="45.6565" lon="-0.9967">
        <ele>20.6</ele>
        <time>2012-11-22T15:04:26Z</time>
      </trkpt>
      <trkpt lat="45.65661" lon="-0.99684">
        <ele>20.6</ele>
        <time>2012-11-22T15:04:37Z</time>
      </trkpt>
      <trkpt lat="45.65671" lon="-0.99699">
        <ele>20.7</ele>
        <time>2012-11-22T15:04:48Z</time>
      </trkpt>
      <trkpt lat="45.65682" lon="-0.99713">
        <ele>20.7</ele>
        <time>2012-11-22T15:05:00Z</time>
      </trkpt>
      <trkpt lat="45.65691" lon="-0.99731">
        <ele>20.7</ele>
        <time>2012-11-22T15:05:11Z</time>
      </trkpt>
      <trkpt lat="45.65685" lon="-0.99748">
        <ele>20.8</ele>
        <time>2012-11-22T15:05:24Z</time>
      </trkpt>
      <trkpt lat="45.65675" lon="-0.99762">
        <ele>20.8</ele>
        <time>2012-11-22T15:05:36Z</time>
      </trkpt>
      <trkpt lat="45.65663" lon="-0.99773">
        <ele>20.8</ele>
        <time>2012-11-22T15:05:47Z</time>
      </trkpt>
      <trkpt lat="45.65652" lon="-0.99786">
        <ele>20.9</ele>
        <time>2012-11-22T15:06:00Z</time>
      </trkpt>
      <trkpt lat="45.6564" lon="-0.99798">
        <ele>20.9</ele>
        <time>2012-11-22T15:06:10Z</time>
      </trkpt>
      <trkpt lat="45.6563" lon="-0.9981">
        <ele>20.9</ele>
        <time>2012-11-22T15:06:21Z</time>
      </trkpt>
      <trkpt lat="45.65619" lon="-0.99824">
        <ele>21</ele>
        <time>2012-11-22T15:06:31Z</time>
      </trkpt>
      <trkpt lat="45.65607" lon="-0.99835">
        <ele>21</ele>
        <time>2012-11-22T15:06:42Z</time>
      </trkpt>
      <trkpt lat="45.65596" lon="-0.99849">
        <ele>21</ele>
        <time>2012-11-22T15:06:53Z</time>
      </trkpt>
      <trkpt lat="45.65584" lon="-0.99862">
        <ele>21.1</ele>
        <time>2012-11-22T15:07:05Z</time>
      </trkpt>
      <trkpt lat="45.65568" lon="-0.99877">
        <ele>21.1</ele>
        <time>2012-11-22T15:07:16Z</time>
      </trkpt>
      <trkpt lat="45.65558" lon="-0.9989">
        <ele>21.2</ele>
        <time>2012-11-22T15:07:30Z</time>
      </trkpt>
      <trkpt lat="45.65547" lon="-0.99903">
        <ele>21.2</ele>
        <time>2012-11-22T15:07:42Z</time>
      </trkpt>
      <trkpt lat="45.65538" lon="-0.99919">
        <ele>21.2</ele>
        <time>2012-11-22T15:07:54Z</time>
      </trkpt>
      <trkpt lat="45.65526" lon="-0.99931">
        <ele>21.3</ele>
        <time>2012-11-22T15:08:07Z</time>
      </trkpt>
      <trkpt lat="45.65513" lon="-0.99943">
        <ele>21.3</ele>
        <time>2012-11-22T15:08:19Z</time>
      </trkpt>
      <trkpt lat="45.65502" lon="-0.99957">
        <ele>21.3</ele>
        <time>2012-11-22T15:08:30Z</time>
      </trkpt>
      <trkpt lat="45.65491" lon="-0.99969">
        <ele>21.4</ele>
        <time>2012-11-22T15:08:40Z</time>
      </trkpt>
      <trkpt lat="45.6548" lon="-0.99982">
        <ele>21.4</ele>
        <time>2012-11-22T15:08:51Z</time>
      </trkpt>
      <trkpt lat="45.65468" lon="-0.99997">
        <ele>21.4</ele>
        <time>2012-11-22T15:09:02Z</time>
      </trkpt>
      <trkpt lat="45.65456" lon="-1.00009">
        <ele>21.5</ele>
        <time>2012-11-22T15:09:15Z</time>
      </trkpt>
      <trkpt lat="45.65442" lon="-1.00025">
        <ele>21.5</ele>
        <time>2012-11-22T15:09:28Z</time>
      </trkpt>
      <trkpt lat="45.65431" lon="-1.00036">
        <ele>21.6</ele>
        <time>2012-11-22T15:09:42Z</time>
      </trkpt>
      <trkpt lat="45.6542" lon="-1.00049">
        <ele>21.6</ele>
        <time>2012-11-22T15:09:53Z</time>
      </trkpt>
      <trkpt lat="45.65408" lon="-1.00062">
        <ele>21.6</ele>
        <time>2012-11-22T15:10:05Z</time>
      </trkpt>
      <trkpt lat="45.65394" lon="-1.00073">
        <ele>21.7</ele>
        <time>2012-11-22T15:10:16Z</time>
      </trkpt>
      <trkpt lat="45.65384" lon="-1.00088">
        <ele>21.7</ele>
        <time>2012-11-22T15:10:31Z</time>
      </trkpt>
      <trkpt lat="45.65374" lon="-1.00102">
        <ele>21.8</ele>
        <time>2012-11-22T15:10:42Z</time>
      </trkpt>
      <trkpt lat="45.65362" lon="-1.00112">
        <ele>21.8</ele>
        <time>2012-11-22T15:10:52Z</time>
      </trkpt>
      <trkpt lat="45.65351" lon="-1.00126">
        <ele>21.8</ele>
        <time>2012-11-22T15:11:03Z</time>
      </trkpt>
      <trkpt lat="45.65341" lon="-1.00138">
        <ele>21.9</ele>
        <time>2012-11-22T15:11:14Z</time>
      </trkpt>
      <trkpt lat="45.65331" lon="-1.00152">
        <ele>21.9</ele>
        <time>2012-11-22T15:11:24Z</time>
      </trkpt>
      <trkpt lat="45.65317" lon="-1.00166">
        <ele>21.9</ele>
        <time>2012-11-22T15:11:35Z</time>
      </trkpt>
      <trkpt lat="45.65303" lon="-1.00181">
        <ele>22</ele>
        <time>2012-11-22T15:11:51Z</time>
      </trkpt>
      <trkpt lat="45.65293" lon="-1.00197">
        <ele>22</ele>
        <time>2012-11-22T15:12:04Z</time>
      </trkpt>
      <trkpt lat="45.65281" lon="-1.00207">
        <ele>22</ele>
        <time>2012-11-22T15:12:17Z</time>
      </trkpt>
      <trkpt lat="45.65267" lon="-1.00219">
        <ele>22.1</ele>
        <time>2012-11-22T15:12:30Z</time>
      </trkpt>
      <trkpt lat="45.65256" lon="-1.00231">
        <ele>22.1</ele>
        <time>2012-11-22T15:12:43Z</time>
      </trkpt>
      <trkpt lat="45.65246" lon="-1.00244">
        <ele>22.2</ele>
        <time>2012-11-22T15:12:55Z</time>
      </trkpt>
      <trkpt lat="45.65245" lon="-1.00265">
        <ele>22.2</ele>
        <time>2012-11-22T15:13:09Z</time>
      </trkpt>
      <trkpt lat="45.65246" lon="-1.00285">
        <ele>22.2</ele>
        <time>2012-11-22T15:13:21Z</time>
      </trkpt>
      <trkpt lat="45.65249" lon="-1.00306">
        <ele>22.3</ele>
        <time>2012-11-22T15:13:32Z</time>
      </trkpt>
      <trkpt lat="45.65255" lon="-1.00325">
        <ele>22.3</ele>
        <time>2012-11-22T15:13:45Z</time>
      </trkpt>
      <trkpt lat="45.6526" lon="-1.00346">
        <ele>22.4</ele>
        <time>2012-11-22T15:13:56Z</time>
      </trkpt>
      <trkpt lat="45.65265" lon="-1.00365">
        <ele>22.4</ele>
        <time>2012-11-22T15:14:10Z</time>
      </trkpt>
      <trkpt lat="45.65267" lon="-1.00385">
        <ele>22.4</ele>
        <time>2012-11-22T15:14:21Z</time>
      </trkpt>
      <trkpt lat="45.65269" lon="-1.0041">
        <ele>22.5</ele>
        <time>2012-11-22T15:14:34Z</time>
      </trkpt>
      <trkpt lat="45.65271" lon="-1.0043">
        <ele>22.5</ele>
        <time>2012-11-22T15:14:47Z</time>
      </trkpt>
      <trkpt lat="45.65272" lon="-1.0045">
        <ele>22.5</ele>
        <time>2012-11-22T15:14:58Z</time>
      </trkpt>
      <trkpt lat="45.65273" lon="-1.0047">
        <ele>22.6</ele>
        <time>2012-11-22T15:15:10Z</time>
      </trkpt>
      <trkpt lat="45.65276" lon="-1.0049">
        <ele>22.6</ele>
        <time>2012-11-22T15:15:22Z</time>
      </trkpt>
      <trkpt lat="45.65277" lon="-1.0051">
        <ele>22.7</ele>
        <time>2012-11-22T15:15:34Z</time>
      </trkpt>
      <trkpt lat="45.65281" lon="-1.00528">
        <ele>22.7</ele>
        <time>2012-11-22T15:15:44Z</time>
      </trkpt>
      <trkpt lat="45.65286" lon="-1.00548">
        <ele>22.7</ele>
        <time>2012-11-22T15:15:56Z</time>
      </trkpt>
      <trkpt lat="45.65288" lon="-1.00568">
        <ele>22.8</ele>
        <time>2012-11-22T15:16:08Z</time>
      </trkpt>
      <trkpt lat="45.6529" lon="-1.00587">
        <ele>22.8</ele>
        <time>2012-11-22T15:16:20Z</time>
      </trkpt>
      <trkpt lat="45.65294" lon="-1.00611">
        <ele>22.8</ele>
        <time>2012-11-22T15:16:31Z</time>
      </trkpt>
      <trkpt lat="45.65299" lon="-1.00629">
        <ele>22.9</ele>
        <time>2012-11-22T15:16:44Z</time>
      </trkpt>
      <trkpt lat="45.65302" lon="-1.00648">
        <ele>22.9</ele>
        <time>2012-11-22T15:16:56Z</time>
      </trkpt>
      <trkpt lat="45.65308" lon="-1.00667">
        <ele>23</ele>
        <time>2012-11-22T15:17:10Z</time>
      </trkpt>
      <trkpt lat="45.65313" lon="-1.00685">
        <ele>23</ele>
        <time>2012-11-22T15:17:23Z</time>
      </trkpt>
      <trkpt lat="45.65319" lon="-1.00704">
        <ele>23</ele>
        <time>2012-11-22T15:17:35Z</time>
      </trkpt>
      <trkpt lat="45.65322" lon="-1.00724">
        <ele>23.1</ele>
        <time>2012-11-22T15:17:46Z</time>
      </trkpt>
      <trkpt lat="45.65326" lon="-1.00743">
        <ele>23.1</ele>
        <time>2012-11-22T15:17:59Z</time>
      </trkpt>
      <trkpt lat="45.65333" lon="-1.0076">
        <ele>23.1</ele>
        <time>2012-11-22T15:18:11Z</time>
      </trkpt>
      <trkpt lat="45.6534" lon="-1.00778">
        <ele>23.2</ele>
        <time>2012-11-22T15:18:22Z</time>
      </trkpt>
      <trkpt lat="45.65344" lon="-1.00797">
        <ele>23.2</ele>
        <time>2012-11-22T15:18:35Z</time>
      </trkpt>
      <trkpt lat="45.65347" lon="-1.00817">
        <ele>23.3</ele>
        <time>2012-11-22T15:18:46Z</time>
      </trkpt>
      <trkpt lat="45.65351" lon="-1.00837">
        <ele>23.3</ele>
        <time>2012-11-22T15:18:58Z</time>
      </trkpt>
      <trkpt lat="45.65356" lon="-1.00857">
        <ele>23.3</ele>
        <time>2012-11-22T15:19:09Z</time>
      </trkpt>
      <trkpt lat="45.65361" lon="-1.00882">
        <ele>23.4</ele>
        <time>2012-11-22T15:19:22Z</time>
      </trkpt>
      <trkpt lat="45.65364" lon="-1.00901">
        <ele>23.4</ele>
        <time>2012-11-22T15:19:37Z</time>
      </trkpt>
      <trkpt lat="45.65368" lon="-1.00921">
        <ele>23.5</ele>
        <time>2012-11-22T15:19:50Z</time>
      </trkpt>
      <trkpt lat="45.6537" lon="-1.0094">
        <ele>23.5</ele>
        <time>2012-11-22T15:20:03Z</time>
      </trkpt>
      <trkpt lat="45.65373" lon="-1.00959">
        <ele>23.5</ele>
        <time>2012-11-22T15:20:15Z</time>
      </trkpt>
      <trkpt lat="45.65379" lon="-1.00978">
        <ele>23.6</ele>
        <time>2012-11-22T15:20:28Z</time>
      </trkpt>
      <trkpt lat="45.65384" lon="-1.01001">
        <ele>23.6</ele>
        <time>2012-11-22T15:20:40Z</time>
      </trkpt>
      <trkpt lat="45.65389" lon="-1.0102">
        <ele>23.6</ele>
        <time>2012-11-22T15:20:54Z</time>
      </trkpt>
      <trkpt lat="45.65393" lon="-1.01039">
        <ele>23.7</ele>
        <time>2012-11-22T15:21:06Z</time>
      </trkpt>
      <trkpt lat="45.65396" lon="-1.01059">
        <ele>23.7</ele>
        <time>2012-11-22T15:21:17Z</time>
      </trkpt>
      <trkpt lat="45.65401" lon="-1.01079">
        <ele>23.8</ele>
        <time>2012-11-22T15:21:29Z</time>
      </trkpt>
      <trkpt lat="45.65406" lon="-1.01099">
        <ele>23.8</ele>
        <time>2012-11-22T15:21:41Z</time>
      </trkpt>
      <trkpt lat="45.65409" lon="-1.01118">
        <ele>23.8</ele>
        <time>2012-11-22T15:21:52Z</time>
      </trkpt>
      <trkpt lat="45.65416" lon="-1.01135">
        <ele>23.9</ele>
        <time>2012-11-22T15:22:03Z</time>
      </trkpt>
      <trkpt lat="45.65423" lon="-1.01154">
        <ele>23.9</ele>
        <time>2012-11-22T15:22:15Z</time>
      </trkpt>
      <trkpt lat="45.6543" lon="-1.0117">
        <ele>23.9</ele>
        <time>2012-11-22T15:22:27Z</time>
      </trkpt>
      <trkpt lat="45.65436" lon="-1.01191">
        <ele>24</ele>
        <time>2012-11-22T15:22:39Z</time>
      </trkpt>
      <trkpt lat="45.65445" lon="-1.01211">
        <ele>24</ele>
        <time>2012-11-22T15:22:50Z</time>
      </trkpt>
      <trkpt lat="45.65452" lon="-1.01227">
        <ele>24</ele>
        <time>2012-11-22T15:23:01Z</time>
      </trkpt>
      <trkpt lat="45.65461" lon="-1.01242">
        <ele>24.1</ele>
        <time>2012-11-22T15:23:11Z</time>
      </trkpt>
      <trkpt lat="45.6547" lon="-1.01258">
        <ele>24.1</ele>
        <time>2012-11-22T15:23:22Z</time>
      </trkpt>
      <trkpt lat="45.65473" lon="-1.01277">
        <ele>24.1</ele>
        <time>2012-11-22T15:23:33Z</time>
      </trkpt>
      <trkpt lat="45.65479" lon="-1.01295">
        <ele>24.2</ele>
        <time>2012-11-22T15:23:43Z</time>
      </trkpt>
      <trkpt lat="45.65486" lon="-1.01314">
        <ele>24.2</ele>
        <time>2012-11-22T15:23:56Z</time>
      </trkpt>
      <trkpt lat="45.65497" lon="-1.01351">
        <ele>24.3</ele>
        <time>2012-11-22T15:24:16Z</time>
      </trkpt>
      <trkpt lat="45.65497" lon="-1.01351">
        <ele>24.4</ele>
        <time>2012-11-22T15:25:05Z</time>
      </trkpt>
      <trkpt lat="45.65502" lon="-1.01384">
        <ele>24.5</ele>
        <time>2012-11-22T15:25:16Z</time>
      </trkpt>
      <trkpt lat="45.65502" lon="-1.01384">
        <ele>25.2</ele>
        <time>2012-11-22T15:29:24Z</time>
      </trkpt>
      <trkpt lat="45.65502" lon="-1.01399">
        <ele>25.2</ele>
        <time>2012-11-22T15:29:29Z</time>
      </trkpt>
      <trkpt lat="45.65489" lon="-1.01407">
        <ele>25.3</ele>
        <time>2012-11-22T15:29:43Z</time>
      </trkpt>
      <trkpt lat="45.65476" lon="-1.01415">
        <ele>25.3</ele>
        <time>2012-11-22T15:29:55Z</time>
      </trkpt>
      <trkpt lat="45.6546" lon="-1.01429">
        <ele>25.4</ele>
        <time>2012-11-22T15:30:09Z</time>
      </trkpt>
      <trkpt lat="45.6545" lon="-1.01443">
        <ele>25.4</ele>
        <time>2012-11-22T15:30:26Z</time>
      </trkpt>
      <trkpt lat="45.65444" lon="-1.01462">
        <ele>25.5</ele>
        <time>2012-11-22T15:30:41Z</time>
      </trkpt>
      <trkpt lat="45.65444" lon="-1.01481">
        <ele>25.5</ele>
        <time>2012-11-22T15:30:54Z</time>
      </trkpt>
      <trkpt lat="45.65446" lon="-1.01502">
        <ele>25.6</ele>
        <time>2012-11-22T15:31:08Z</time>
      </trkpt>
      <trkpt lat="45.6545" lon="-1.01522">
        <ele>25.6</ele>
        <time>2012-11-22T15:31:20Z</time>
      </trkpt>
      <trkpt lat="45.65451" lon="-1.01541">
        <ele>25.6</ele>
        <time>2012-11-22T15:31:32Z</time>
      </trkpt>
      <trkpt lat="45.65453" lon="-1.01561">
        <ele>25.7</ele>
        <time>2012-11-22T15:31:44Z</time>
      </trkpt>
      <trkpt lat="45.65451" lon="-1.01581">
        <ele>25.7</ele>
        <time>2012-11-22T15:31:55Z</time>
      </trkpt>
      <trkpt lat="45.65451" lon="-1.01601">
        <ele>25.7</ele>
        <time>2012-11-22T15:32:06Z</time>
      </trkpt>
      <trkpt lat="45.65445" lon="-1.01619">
        <ele>25.8</ele>
        <time>2012-11-22T15:32:18Z</time>
      </trkpt>
      <trkpt lat="45.65432" lon="-1.01626">
        <ele>25.8</ele>
        <time>2012-11-22T15:32:29Z</time>
      </trkpt>
      <trkpt lat="45.65428" lon="-1.01628">
        <ele>25.8</ele>
        <time>2012-11-22T15:32:32Z</time>
      </trkpt>
      <trkpt lat="45.65418" lon="-1.01613">
        <ele>25.8</ele>
        <time>2012-11-22T15:32:33Z</time>
      </trkpt>
      <trkpt lat="45.65402" lon="-1.0162">
        <ele>25.9</ele>
        <time>2012-11-22T15:32:48Z</time>
      </trkpt>
      <trkpt lat="45.65389" lon="-1.01627">
        <ele>25.8</ele>
        <time>2012-11-22T15:33:03Z</time>
      </trkpt>
      <trkpt lat="45.65375" lon="-1.01631">
        <ele>25.7</ele>
        <time>2012-11-22T15:33:16Z</time>
      </trkpt>
      <trkpt lat="45.65362" lon="-1.01636">
        <ele>25.5</ele>
        <time>2012-11-22T15:33:27Z</time>
      </trkpt>
      <trkpt lat="45.65349" lon="-1.01644">
        <ele>25.4</ele>
        <time>2012-11-22T15:33:41Z</time>
      </trkpt>
      <trkpt lat="45.65336" lon="-1.01654">
        <ele>25.3</ele>
        <time>2012-11-22T15:33:56Z</time>
      </trkpt>
      <trkpt lat="45.65326" lon="-1.01666">
        <ele>25.1</ele>
        <time>2012-11-22T15:34:08Z</time>
      </trkpt>
      <trkpt lat="45.65314" lon="-1.01679">
        <ele>25</ele>
        <time>2012-11-22T15:34:20Z</time>
      </trkpt>
      <trkpt lat="45.65303" lon="-1.01691">
        <ele>24.9</ele>
        <time>2012-11-22T15:34:33Z</time>
      </trkpt>
      <trkpt lat="45.65291" lon="-1.01701">
        <ele>24.8</ele>
        <time>2012-11-22T15:34:44Z</time>
      </trkpt>
      <trkpt lat="45.65278" lon="-1.01709">
        <ele>24.6</ele>
        <time>2012-11-22T15:34:56Z</time>
      </trkpt>
      <trkpt lat="45.65265" lon="-1.01716">
        <ele>24.5</ele>
        <time>2012-11-22T15:35:07Z</time>
      </trkpt>
      <trkpt lat="45.65248" lon="-1.01725">
        <ele>24.4</ele>
        <time>2012-11-22T15:35:19Z</time>
      </trkpt>
      <trkpt lat="45.65234" lon="-1.01733">
        <ele>24.3</ele>
        <time>2012-11-22T15:35:34Z</time>
      </trkpt>
      <trkpt lat="45.65221" lon="-1.01742">
        <ele>24.1</ele>
        <time>2012-11-22T15:35:46Z</time>
      </trkpt>
      <trkpt lat="45.65207" lon="-1.01749">
        <ele>24</ele>
        <time>2012-11-22T15:35:57Z</time>
      </trkpt>
      <trkpt lat="45.65195" lon="-1.01761">
        <ele>23.9</ele>
        <time>2012-11-22T15:36:08Z</time>
      </trkpt>
      <trkpt lat="45.65184" lon="-1.01772">
        <ele>23.8</ele>
        <time>2012-11-22T15:36:19Z</time>
      </trkpt>
      <trkpt lat="45.6517" lon="-1.01778">
        <ele>23.7</ele>
        <time>2012-11-22T15:36:31Z</time>
      </trkpt>
      <trkpt lat="45.65156" lon="-1.01785">
        <ele>23.6</ele>
        <time>2012-11-22T15:36:42Z</time>
      </trkpt>
      <trkpt lat="45.65143" lon="-1.01792">
        <ele>23.5</ele>
        <time>2012-11-22T15:36:54Z</time>
      </trkpt>
      <trkpt lat="45.6513" lon="-1.018">
        <ele>23.3</ele>
        <time>2012-11-22T15:37:05Z</time>
      </trkpt>
      <trkpt lat="45.65116" lon="-1.01801">
        <ele>23.2</ele>
        <time>2012-11-22T15:37:17Z</time>
      </trkpt>
      <trkpt lat="45.65107" lon="-1.01787">
        <ele>23.1</ele>
        <time>2012-11-22T15:37:27Z</time>
      </trkpt>
      <trkpt lat="45.65097" lon="-1.01771">
        <ele>23</ele>
        <time>2012-11-22T15:37:39Z</time>
      </trkpt>
      <trkpt lat="45.65089" lon="-1.01754">
        <ele>22.9</ele>
        <time>2012-11-22T15:37:50Z</time>
      </trkpt>
      <trkpt lat="45.65081" lon="-1.01732">
        <ele>22.8</ele>
        <time>2012-11-22T15:38:02Z</time>
      </trkpt>
      <trkpt lat="45.65074" lon="-1.01715">
        <ele>22.6</ele>
        <time>2012-11-22T15:38:16Z</time>
      </trkpt>
      <trkpt lat="45.65069" lon="-1.01697">
        <ele>22.5</ele>
        <time>2012-11-22T15:38:27Z</time>
      </trkpt>
      <trkpt lat="45.65062" lon="-1.01678">
        <ele>22.4</ele>
        <time>2012-11-22T15:38:38Z</time>
      </trkpt>
      <trkpt lat="45.65055" lon="-1.0166">
        <ele>22.3</ele>
        <time>2012-11-22T15:38:49Z</time>
      </trkpt>
      <trkpt lat="45.65047" lon="-1.01643">
        <ele>22.2</ele>
        <time>2012-11-22T15:39:00Z</time>
      </trkpt>
      <trkpt lat="45.6504" lon="-1.01624">
        <ele>22.1</ele>
        <time>2012-11-22T15:39:13Z</time>
      </trkpt>
      <trkpt lat="45.65035" lon="-1.01606">
        <ele>21.9</ele>
        <time>2012-11-22T15:39:26Z</time>
      </trkpt>
      <trkpt lat="45.65029" lon="-1.01588">
        <ele>21.8</ele>
        <time>2012-11-22T15:39:37Z</time>
      </trkpt>
      <trkpt lat="45.65017" lon="-1.01577">
        <ele>21.7</ele>
        <time>2012-11-22T15:39:49Z</time>
      </trkpt>
      <trkpt lat="45.65005" lon="-1.01587">
        <ele>21.6</ele>
        <time>2012-11-22T15:40:01Z</time>
      </trkpt>
      <trkpt lat="45.64994" lon="-1.016">
        <ele>21.4</ele>
        <time>2012-11-22T15:40:13Z</time>
      </trkpt>
      <trkpt lat="45.64982" lon="-1.01611">
        <ele>21.3</ele>
        <time>2012-11-22T15:40:25Z</time>
      </trkpt>
      <trkpt lat="45.6497" lon="-1.01621">
        <ele>21.2</ele>
        <time>2012-11-22T15:40:36Z</time>
      </trkpt>
      <trkpt lat="45.64958" lon="-1.0163">
        <ele>21.1</ele>
        <time>2012-11-22T15:40:48Z</time>
      </trkpt>
      <trkpt lat="45.64946" lon="-1.0164">
        <ele>21</ele>
        <time>2012-11-22T15:40:59Z</time>
      </trkpt>
      <trkpt lat="45.64934" lon="-1.01649">
        <ele>20.9</ele>
        <time>2012-11-22T15:41:10Z</time>
      </trkpt>
      <trkpt lat="45.64921" lon="-1.01656">
        <ele>20.8</ele>
        <time>2012-11-22T15:41:21Z</time>
      </trkpt>
      <trkpt lat="45.64908" lon="-1.01664">
        <ele>20.7</ele>
        <time>2012-11-22T15:41:32Z</time>
      </trkpt>
      <trkpt lat="45.64896" lon="-1.01675">
        <ele>20.5</ele>
        <time>2012-11-22T15:41:44Z</time>
      </trkpt>
      <trkpt lat="45.64885" lon="-1.01688">
        <ele>20.4</ele>
        <time>2012-11-22T15:41:55Z</time>
      </trkpt>
      <trkpt lat="45.64875" lon="-1.01702">
        <ele>20.3</ele>
        <time>2012-11-22T15:42:06Z</time>
      </trkpt>
      <trkpt lat="45.64865" lon="-1.01715">
        <ele>20.2</ele>
        <time>2012-11-22T15:42:17Z</time>
      </trkpt>
      <trkpt lat="45.64853" lon="-1.01731">
        <ele>20.1</ele>
        <time>2012-11-22T15:42:29Z</time>
      </trkpt>
      <trkpt lat="45.64844" lon="-1.01746">
        <ele>19.9</ele>
        <time>2012-11-22T15:42:44Z</time>
      </trkpt>
      <trkpt lat="45.64834" lon="-1.01765">
        <ele>19.8</ele>
        <time>2012-11-22T15:42:55Z</time>
      </trkpt>
      <trkpt lat="45.64827" lon="-1.01782">
        <ele>19.6</ele>
        <time>2012-11-22T15:43:12Z</time>
      </trkpt>
      <trkpt lat="45.64821" lon="-1.01799">
        <ele>19.5</ele>
        <time>2012-11-22T15:43:23Z</time>
      </trkpt>
      <trkpt lat="45.64814" lon="-1.0182">
        <ele>19.4</ele>
        <time>2012-11-22T15:43:34Z</time>
      </trkpt>
      <trkpt lat="45.64806" lon="-1.01837">
        <ele>19.3</ele>
        <time>2012-11-22T15:43:49Z</time>
      </trkpt>
      <trkpt lat="45.64798" lon="-1.01854">
        <ele>19.1</ele>
        <time>2012-11-22T15:44:01Z</time>
      </trkpt>
      <trkpt lat="45.64793" lon="-1.01873">
        <ele>19</ele>
        <time>2012-11-22T15:44:11Z</time>
      </trkpt>
      <trkpt lat="45.64785" lon="-1.0189">
        <ele>18.9</ele>
        <time>2012-11-22T15:44:23Z</time>
      </trkpt>
      <trkpt lat="45.64776" lon="-1.01904">
        <ele>18.8</ele>
        <time>2012-11-22T15:44:37Z</time>
      </trkpt>
      <trkpt lat="45.64766" lon="-1.0192">
        <ele>18.7</ele>
        <time>2012-11-22T15:44:48Z</time>
      </trkpt>
      <trkpt lat="45.64743" lon="-1.01932">
        <ele>18.5</ele>
        <time>2012-11-22T15:45:06Z</time>
      </trkpt>
      <trkpt lat="45.64743" lon="-1.01932">
        <ele>17.7</ele>
        <time>2012-11-22T15:46:25Z</time>
      </trkpt>
      <trkpt lat="45.6473" lon="-1.0193">
        <ele>17.6</ele>
        <time>2012-11-22T15:46:39Z</time>
      </trkpt>
      <trkpt lat="45.64718" lon="-1.01919">
        <ele>17.4</ele>
        <time>2012-11-22T15:46:53Z</time>
      </trkpt>
      <trkpt lat="45.64707" lon="-1.01907">
        <ele>17.3</ele>
        <time>2012-11-22T15:47:06Z</time>
      </trkpt>
      <trkpt lat="45.64693" lon="-1.01897">
        <ele>17.1</ele>
        <time>2012-11-22T15:47:23Z</time>
      </trkpt>
      <trkpt lat="45.64682" lon="-1.01886">
        <ele>16.9</ele>
        <time>2012-11-22T15:47:42Z</time>
      </trkpt>
      <trkpt lat="45.6467" lon="-1.01866">
        <ele>16.8</ele>
        <time>2012-11-22T15:47:52Z</time>
      </trkpt>
      <trkpt lat="45.64663" lon="-1.01849">
        <ele>16.7</ele>
        <time>2012-11-22T15:48:07Z</time>
      </trkpt>
      <trkpt lat="45.6466" lon="-1.01829">
        <ele>16.5</ele>
        <time>2012-11-22T15:48:20Z</time>
      </trkpt>
      <trkpt lat="45.64657" lon="-1.0181">
        <ele>16.4</ele>
        <time>2012-11-22T15:48:38Z</time>
      </trkpt>
      <trkpt lat="45.64654" lon="-1.0179">
        <ele>16.2</ele>
        <time>2012-11-22T15:48:58Z</time>
      </trkpt>
      <trkpt lat="45.64655" lon="-1.0177">
        <ele>16</ele>
        <time>2012-11-22T15:49:13Z</time>
      </trkpt>
      <trkpt lat="45.64654" lon="-1.01749">
        <ele>15.8</ele>
        <time>2012-11-22T15:49:29Z</time>
      </trkpt>
      <trkpt lat="45.64653" lon="-1.0173">
        <ele>14.6</ele>
        <time>2012-11-22T15:49:53Z</time>
      </trkpt>
      <trkpt lat="45.64642" lon="-1.01717">
        <ele>13.2</ele>
        <time>2012-11-22T15:50:22Z</time>
      </trkpt>
      <trkpt lat="45.64628" lon="-1.01715">
        <ele>12.6</ele>
        <time>2012-11-22T15:50:34Z</time>
      </trkpt>
      <trkpt lat="45.64614" lon="-1.01713">
        <ele>12.1</ele>
        <time>2012-11-22T15:50:46Z</time>
      </trkpt>
      <trkpt lat="45.64598" lon="-1.01713">
        <ele>11.4</ele>
        <time>2012-11-22T15:51:00Z</time>
      </trkpt>
      <trkpt lat="45.64585" lon="-1.01711">
        <ele>10.7</ele>
        <time>2012-11-22T15:51:14Z</time>
      </trkpt>
      <trkpt lat="45.64571" lon="-1.01707">
        <ele>10.1</ele>
        <time>2012-11-22T15:51:26Z</time>
      </trkpt>
      <trkpt lat="45.64557" lon="-1.01708">
        <ele>9.6</ele>
        <time>2012-11-22T15:51:37Z</time>
      </trkpt>
      <trkpt lat="45.64543" lon="-1.01708">
        <ele>9</ele>
        <time>2012-11-22T15:51:50Z</time>
      </trkpt>
      <trkpt lat="45.6453" lon="-1.01708">
        <ele>8.3</ele>
        <time>2012-11-22T15:52:03Z</time>
      </trkpt>
      <trkpt lat="45.64515" lon="-1.0171">
        <ele>7.7</ele>
        <time>2012-11-22T15:52:16Z</time>
      </trkpt>
      <trkpt lat="45.64501" lon="-1.0171">
        <ele>7.1</ele>
        <time>2012-11-22T15:52:29Z</time>
      </trkpt>
      <trkpt lat="45.64487" lon="-1.01712">
        <ele>6.5</ele>
        <time>2012-11-22T15:52:42Z</time>
      </trkpt>
      <trkpt lat="45.64473" lon="-1.01712">
        <ele>5.9</ele>
        <time>2012-11-22T15:52:54Z</time>
      </trkpt>
      <trkpt lat="45.64459" lon="-1.01714">
        <ele>5.7</ele>
        <time>2012-11-22T15:53:06Z</time>
      </trkpt>
      <trkpt lat="45.64442" lon="-1.01707">
        <ele>5.7</ele>
        <time>2012-11-22T15:53:18Z</time>
      </trkpt>
      <trkpt lat="45.64429" lon="-1.01701">
        <ele>5.6</ele>
        <time>2012-11-22T15:53:34Z</time>
      </trkpt>
      <trkpt lat="45.64417" lon="-1.01691">
        <ele>5.6</ele>
        <time>2012-11-22T15:53:49Z</time>
      </trkpt>
      <trkpt lat="45.64407" lon="-1.01678">
        <ele>5.5</ele>
        <time>2012-11-22T15:54:02Z</time>
      </trkpt>
      <trkpt lat="45.64396" lon="-1.01656">
        <ele>5.5</ele>
        <time>2012-11-22T15:54:14Z</time>
      </trkpt>
      <trkpt lat="45.64388" lon="-1.01639">
        <ele>5.5</ele>
        <time>2012-11-22T15:54:30Z</time>
      </trkpt>
      <trkpt lat="45.6438" lon="-1.01622">
        <ele>5.4</ele>
        <time>2012-11-22T15:54:45Z</time>
      </trkpt>
      <trkpt lat="45.64366" lon="-1.01621">
        <ele>5.4</ele>
        <time>2012-11-22T15:54:59Z</time>
      </trkpt>
      <trkpt lat="45.64355" lon="-1.01635">
        <ele>5.3</ele>
        <time>2012-11-22T15:55:13Z</time>
      </trkpt>
      <trkpt lat="45.64345" lon="-1.01648">
        <ele>5.3</ele>
        <time>2012-11-22T15:55:25Z</time>
      </trkpt>
      <trkpt lat="45.64331" lon="-1.01642">
        <ele>5.3</ele>
        <time>2012-11-22T15:55:40Z</time>
      </trkpt>
      <trkpt lat="45.64322" lon="-1.01628">
        <ele>5.2</ele>
        <time>2012-11-22T15:55:50Z</time>
      </trkpt>
      <trkpt lat="45.64313" lon="-1.01611">
        <ele>5.2</ele>
        <time>2012-11-22T15:56:02Z</time>
      </trkpt>
      <trkpt lat="45.64304" lon="-1.01595">
        <ele>5.2</ele>
        <time>2012-11-22T15:56:12Z</time>
      </trkpt>
      <trkpt lat="45.64296" lon="-1.01578">
        <ele>5.1</ele>
        <time>2012-11-22T15:56:25Z</time>
      </trkpt>
      <trkpt lat="45.64285" lon="-1.01563">
        <ele>5.1</ele>
        <time>2012-11-22T15:56:36Z</time>
      </trkpt>
      <trkpt lat="45.64275" lon="-1.0155">
        <ele>5.1</ele>
        <time>2012-11-22T15:56:46Z</time>
      </trkpt>
      <trkpt lat="45.64263" lon="-1.01539">
        <ele>5</ele>
        <time>2012-11-22T15:56:58Z</time>
      </trkpt>
      <trkpt lat="45.64249" lon="-1.01534">
        <ele>5</ele>
        <time>2012-11-22T15:57:09Z</time>
      </trkpt>
      <trkpt lat="45.64236" lon="-1.01527">
        <ele>5</ele>
        <time>2012-11-22T15:57:21Z</time>
      </trkpt>
      <trkpt lat="45.64222" lon="-1.01522">
        <ele>4.9</ele>
        <time>2012-11-22T15:57:30Z</time>
      </trkpt>
      <trkpt lat="45.64208" lon="-1.0152">
        <ele>4.9</ele>
        <time>2012-11-22T15:57:40Z</time>
      </trkpt>
      <trkpt lat="45.64195" lon="-1.01519">
        <ele>4.9</ele>
        <time>2012-11-22T15:57:52Z</time>
      </trkpt>
      <trkpt lat="45.64181" lon="-1.01523">
        <ele>4.8</ele>
        <time>2012-11-22T15:58:03Z</time>
      </trkpt>
      <trkpt lat="45.64167" lon="-1.01531">
        <ele>4.8</ele>
        <time>2012-11-22T15:58:15Z</time>
      </trkpt>
      <trkpt lat="45.64154" lon="-1.01545">
        <ele>4.8</ele>
        <time>2012-11-22T15:58:27Z</time>
      </trkpt>
      <trkpt lat="45.64146" lon="-1.01561">
        <ele>4.7</ele>
        <time>2012-11-22T15:58:39Z</time>
      </trkpt>
      <trkpt lat="45.64135" lon="-1.01576">
        <ele>4.7</ele>
        <time>2012-11-22T15:58:51Z</time>
      </trkpt>
      <trkpt lat="45.64125" lon="-1.01591">
        <ele>4.6</ele>
        <time>2012-11-22T15:59:06Z</time>
      </trkpt>
      <trkpt lat="45.64116" lon="-1.01605">
        <ele>4.6</ele>
        <time>2012-11-22T15:59:19Z</time>
      </trkpt>
      <trkpt lat="45.64104" lon="-1.0162">
        <ele>4.6</ele>
        <time>2012-11-22T15:59:32Z</time>
      </trkpt>
      <trkpt lat="45.64094" lon="-1.01634">
        <ele>4.5</ele>
        <time>2012-11-22T15:59:46Z</time>
      </trkpt>
      <trkpt lat="45.64084" lon="-1.01647">
        <ele>4.5</ele>
        <time>2012-11-22T15:59:57Z</time>
      </trkpt>
      <trkpt lat="45.6407" lon="-1.01665">
        <ele>4.4</ele>
        <time>2012-11-22T16:00:10Z</time>
      </trkpt>
      <trkpt lat="45.64059" lon="-1.01677">
        <ele>4.4</ele>
        <time>2012-11-22T16:00:26Z</time>
      </trkpt>
      <trkpt lat="45.64045" lon="-1.01682">
        <ele>4.4</ele>
        <time>2012-11-22T16:00:37Z</time>
      </trkpt>
      <trkpt lat="45.64033" lon="-1.01693">
        <ele>4.3</ele>
        <time>2012-11-22T16:00:48Z</time>
      </trkpt>
      <trkpt lat="45.64023" lon="-1.01708">
        <ele>4.3</ele>
        <time>2012-11-22T16:00:59Z</time>
      </trkpt>
      <trkpt lat="45.64012" lon="-1.01722">
        <ele>4.3</ele>
        <time>2012-11-22T16:01:10Z</time>
      </trkpt>
      <trkpt lat="45.64004" lon="-1.01738">
        <ele>4.2</ele>
        <time>2012-11-22T16:01:23Z</time>
      </trkpt>
      <trkpt lat="45.63996" lon="-1.01753">
        <ele>4.2</ele>
        <time>2012-11-22T16:01:31Z</time>
      </trkpt>
      <trkpt lat="45.64006" lon="-1.01765">
        <ele>4.2</ele>
        <time>2012-11-22T16:01:48Z</time>
      </trkpt>
      <trkpt lat="45.64017" lon="-1.01783">
        <ele>4.1</ele>
        <time>2012-11-22T16:01:59Z</time>
      </trkpt>
      <trkpt lat="45.64026" lon="-1.01798">
        <ele>4.1</ele>
        <time>2012-11-22T16:02:14Z</time>
      </trkpt>
      <trkpt lat="45.64036" lon="-1.01812">
        <ele>4</ele>
        <time>2012-11-22T16:02:27Z</time>
      </trkpt>
      <trkpt lat="45.64048" lon="-1.0183">
        <ele>4</ele>
        <time>2012-11-22T16:02:39Z</time>
      </trkpt>
      <trkpt lat="45.64057" lon="-1.01844">
        <ele>4</ele>
        <time>2012-11-22T16:02:56Z</time>
      </trkpt>
      <trkpt lat="45.64067" lon="-1.0186">
        <ele>3.9</ele>
        <time>2012-11-22T16:03:08Z</time>
      </trkpt>
      <trkpt lat="45.64077" lon="-1.01875">
        <ele>3.9</ele>
        <time>2012-11-22T16:03:20Z</time>
      </trkpt>
      <trkpt lat="45.64086" lon="-1.01889">
        <ele>3.9</ele>
        <time>2012-11-22T16:03:31Z</time>
      </trkpt>
      <trkpt lat="45.64098" lon="-1.01908">
        <ele>3.8</ele>
        <time>2012-11-22T16:03:43Z</time>
      </trkpt>
      <trkpt lat="45.64108" lon="-1.01926">
        <ele>3.8</ele>
        <time>2012-11-22T16:03:54Z</time>
      </trkpt>
      <trkpt lat="45.64117" lon="-1.01942">
        <ele>3.7</ele>
        <time>2012-11-22T16:04:06Z</time>
      </trkpt>
      <trkpt lat="45.64125" lon="-1.01957">
        <ele>3.7</ele>
        <time>2012-11-22T16:04:18Z</time>
      </trkpt>
      <trkpt lat="45.64133" lon="-1.01977">
        <ele>3.7</ele>
        <time>2012-11-22T16:04:30Z</time>
      </trkpt>
      <trkpt lat="45.64139" lon="-1.01996">
        <ele>3.6</ele>
        <time>2012-11-22T16:04:42Z</time>
      </trkpt>
      <trkpt lat="45.64145" lon="-1.02015">
        <ele>3.6</ele>
        <time>2012-11-22T16:04:56Z</time>
      </trkpt>
      <trkpt lat="45.6415" lon="-1.02037">
        <ele>3.6</ele>
        <time>2012-11-22T16:05:09Z</time>
      </trkpt>
      <trkpt lat="45.64154" lon="-1.02059">
        <ele>3.5</ele>
        <time>2012-11-22T16:05:23Z</time>
      </trkpt>
      <trkpt lat="45.64158" lon="-1.02078">
        <ele>3.5</ele>
        <time>2012-11-22T16:05:37Z</time>
      </trkpt>
      <trkpt lat="45.64161" lon="-1.02098">
        <ele>3.4</ele>
        <time>2012-11-22T16:05:49Z</time>
      </trkpt>
      <trkpt lat="45.64165" lon="-1.02117">
        <ele>3.4</ele>
        <time>2012-11-22T16:06:02Z</time>
      </trkpt>
      <trkpt lat="45.64167" lon="-1.02138">
        <ele>3.4</ele>
        <time>2012-11-22T16:06:18Z</time>
      </trkpt>
      <trkpt lat="45.64172" lon="-1.02156">
        <ele>3.3</ele>
        <time>2012-11-22T16:06:30Z</time>
      </trkpt>
      <trkpt lat="45.64177" lon="-1.02174">
        <ele>3.3</ele>
        <time>2012-11-22T16:06:44Z</time>
      </trkpt>
      <trkpt lat="45.64183" lon="-1.02193">
        <ele>3.2</ele>
        <time>2012-11-22T16:06:56Z</time>
      </trkpt>
      <trkpt lat="45.64192" lon="-1.02209">
        <ele>3.2</ele>
        <time>2012-11-22T16:07:09Z</time>
      </trkpt>
      <trkpt lat="45.64198" lon="-1.02231">
        <ele>3.2</ele>
        <time>2012-11-22T16:07:25Z</time>
      </trkpt>
      <trkpt lat="45.64195" lon="-1.02251">
        <ele>3.1</ele>
        <time>2012-11-22T16:07:53Z</time>
      </trkpt>
      <trkpt lat="45.64195" lon="-1.02251">
        <ele>3</ele>
        <time>2012-11-22T16:08:01Z</time>
      </trkpt>
    </trkseg>
  </trk>
</gpx>